Time,TemperatureF,DewpointF,PressureIn,WindDirection,WindDirectionDegrees,WindSpeedMPH,WindSpeedGustMPH,Humidity,HourlyPrecipIn,Conditions,Clouds,dailyrainin,SoftwareType,DateUTC
2013-08-24 00:01:00,60.9,58.6,30.14,East,94,0.0,0.0,92,0.00,,,0.00,WeatherCatV1.21B27,2013-08-24 04:01:00,
2013-08-24 00:06:00,61.6,58.9,30.14,NNW,344,0.0,0.0,91,0.00,,,0.00,WeatherCatV1.21B27,2013-08-24 04:06:00,
2013-08-24 00:11:00,61.7,59.0,30.14,NNW,339,0.0,0.0,91,0.00,,,0.00,WeatherCatV1.21B27,2013-08-24 04:11:00,
2013-08-24 00:12:00,61.6,58.9,30.14,NNW,339,0.0,0.0,91,0.00,,,0.00,WeatherCatV1.21B27,2013-08-24 04:12:00,
2013-08-24 00:16:00,61.7,59.0,30.14,NNW,339,0.0,0.0,91,0.00,,,0.00,WeatherCatV1.21B27,2013-08-24 04:16:00,
2013-08-24 00:17:00,61.6,58.9,30.14,NNW,339,0.0,0.0,91,0.00,,,0.00,WeatherCatV1.21B27,2013-08-24 04:17:00,
2013-08-24 00:21:00,61.5,58.5,30.15,NNW,339,0.0,0.0,90,0.00,,,0.00,WeatherCatV1.21B27,2013-08-24 04:21:00,
2013-08-24 00:22:00,61.5,58.5,30.15,NNW,339,0.0,0.0,90,0.00,,,0.00,WeatherCatV1.21B27,2013-08-24 04:22:00,
2013-08-24 00:26:00,61.3,58.7,30.15,NNW,339,0.0,0.0,91,0.00,,,0.00,WeatherCatV1.21B27,2013-08-24 04:26:00,
2013-08-24 00:27:00,61.3,58.7,30.15,NNW,339,0.0,0.0,91,0.00,,,0.00,WeatherCatV1.21B27,2013-08-24 04:27:00,
2013-08-24 00:28:00,61.3,58.7,30.15,NNW,339,0.0,0.0,91,0.00,,,0.00,WeatherCatV1.21B27,2013-08-24 04:28:00,
2013-08-24 00:31:00,61.3,58.7,30.15,NNW,339,0.0,0.0,91,0.00,,,0.00,WeatherCatV1.21B27,2013-08-24 04:31:00,
2013-08-24 00:32:00,61.3,58.7,30.15,NNW,339,0.0,0.0,91,0.00,,,0.00,WeatherCatV1.21B27,2013-08-24 04:32:00,
2013-08-24 00:33:00,61.3,58.7,30.15,NNW,339,0.0,0.0,91,0.00,,,0.00,WeatherCatV1.21B27,2013-08-24 04:33:00,
2013-08-24 00:37:00,61.3,58.7,30.15,NNW,339,0.0,0.0,91,0.00,,,0.00,WeatherCatV1.21B27,2013-08-24 04:37:00,
2013-08-24 00:38:00,61.2,58.5,30.15,NNW,339,0.0,0.0,91,0.00,,,0.00,WeatherCatV1.21B27,2013-08-24 04:38:00,
2013-08-24 00:39:00,61.2,58.5,30.15,NNW,339,0.0,0.0,91,0.00,,,0.00,WeatherCatV1.21B27,2013-08-24 04:39:00,
2013-08-24 00:42:00,61.2,58.8,30.15,NNW,339,0.0,0.0,92,0.00,,,0.00,WeatherCatV1.21B27,2013-08-24 04:42:00,
2013-08-24 00:43:00,61.2,58.8,30.15,NNW,339,0.0,0.0,92,0.00,,,0.00,WeatherCatV1.21B27,2013-08-24 04:43:00,
2013-08-24 00:44:00,61.2,58.8,30.15,NNW,339,0.0,0.0,92,0.00,,,0.00,WeatherCatV1.21B27,2013-08-24 04:44:00,
2013-08-24 00:47:00,61.2,58.5,30.15,NNW,339,0.0,0.0,91,0.00,,,0.00,WeatherCatV1.21B27,2013-08-24 04:47:00,
2013-08-24 00:48:00,61.2,58.5,30.16,NNW,339,0.0,0.0,91,0.00,,,0.00,WeatherCatV1.21B27,2013-08-24 04:48:00,
2013-08-24 00:49:00,61.2,58.5,30.16,NNW,339,0.0,0.0,91,0.00,,,0.00,WeatherCatV1.21B27,2013-08-24 04:49:00,
2013-08-24 00:52:00,61.1,58.5,30.16,NNW,339,0.0,0.0,91,0.00,,,0.00,WeatherCatV1.21B27,2013-08-24 04:52:00,
2013-08-24 00:53:00,61.1,58.5,30.15,NNW,339,0.0,0.0,91,0.00,,,0.00,WeatherCatV1.21B27,2013-08-24 04:53:00,
2013-08-24 00:54:00,61.0,58.3,30.15,NNW,339,0.0,0.0,91,0.00,,,0.00,WeatherCatV1.21B27,2013-08-24 04:54:00,
2013-08-24 00:57:00,61.0,58.3,30.15,NNW,339,0.0,0.0,91,0.00,,,0.00,WeatherCatV1.21B27,2013-08-24 04:57:00,
2013-08-24 00:58:00,61.0,58.3,30.16,NNW,339,0.0,0.0,91,0.00,,,0.00,WeatherCatV1.21B27,2013-08-24 04:58:00,
2013-08-24 00:59:00,60.9,58.2,30.16,NNW,339,0.0,0.0,91,0.00,,,0.00,WeatherCatV1.21B27,2013-08-24 04:59:00,
2013-08-24 01:02:00,60.9,58.2,30.15,NNW,339,0.0,0.0,91,0.00,,,0.00,WeatherCatV1.21B27,2013-08-24 05:02:00,
2013-08-24 01:03:00,60.9,58.2,30.15,NNW,339,0.0,0.0,91,0.00,,,0.00,WeatherCatV1.21B27,2013-08-24 05:03:00,
2013-08-24 01:04:00,60.9,58.2,30.15,NNW,339,0.0,0.0,91,0.00,,,0.00,WeatherCatV1.21B27,2013-08-24 05:04:00,
2013-08-24 01:07:00,60.9,58.2,30.15,NNW,339,0.0,0.0,91,0.00,,,0.00,WeatherCatV1.21B27,2013-08-24 05:07:00,
2013-08-24 01:08:00,60.9,58.2,30.15,NNW,339,0.0,0.0,91,0.00,,,0.00,WeatherCatV1.21B27,2013-08-24 05:08:00,
2013-08-24 01:10:00,60.8,58.2,30.16,NNW,339,0.0,0.0,91,0.00,,,0.00,WeatherCatV1.21B27,2013-08-24 05:10:00,
2013-08-24 01:12:00,60.7,58.4,30.16,NNE,22,0.0,1.0,92,0.00,,,0.00,WeatherCatV1.21B27,2013-08-24 05:12:00,
2013-08-24 01:13:00,60.7,58.4,30.16,NNE,23,0.0,0.0,92,0.00,,,0.00,WeatherCatV1.21B27,2013-08-24 05:13:00,
2013-08-24 01:14:00,60.7,58.4,30.16,NNE,28,0.0,1.0,92,0.00,,,0.00,WeatherCatV1.21B27,2013-08-24 05:14:00,
2013-08-24 01:15:00,60.7,58.4,30.16,NNE,28,0.0,1.0,92,0.00,,,0.00,WeatherCatV1.21B27,2013-08-24 05:15:00,
2013-08-24 01:17:00,60.6,58.3,30.16,NNE,28,0.0,0.0,92,0.00,,,0.00,WeatherCatV1.21B27,2013-08-24 05:17:00,
2013-08-24 01:18:00,60.6,58.3,30.16,NNE,28,0.0,0.0,92,0.00,,,0.00,WeatherCatV1.21B27,2013-08-24 05:18:00,
2013-08-24 01:19:00,60.6,58.3,30.16,NNE,28,0.0,0.0,92,0.00,,,0.00,WeatherCatV1.21B27,2013-08-24 05:19:00,
2013-08-24 01:20:00,60.6,58.3,30.16,NNE,28,0.0,0.0,92,0.00,,,0.00,WeatherCatV1.21B27,2013-08-24 05:20:00,
2013-08-24 01:23:00,60.8,58.5,30.16,NNE,28,0.0,0.0,92,0.00,,,0.00,WeatherCatV1.21B27,2013-08-24 05:23:00,
2013-08-24 01:24:00,60.8,58.5,30.16,NNE,28,0.0,0.0,92,0.00,,,0.00,WeatherCatV1.21B27,2013-08-24 05:24:00,
2013-08-24 01:25:00,60.9,58.6,30.16,NNE,28,0.0,0.0,92,0.00,,,0.00,WeatherCatV1.21B27,2013-08-24 05:25:00,
2013-08-24 01:28:00,60.8,58.5,30.16,NNE,27,0.0,0.0,92,0.00,,,0.00,WeatherCatV1.21B27,2013-08-24 05:28:00,
2013-08-24 01:29:00,60.8,58.5,30.16,NNE,27,0.0,0.0,92,0.00,,,0.00,WeatherCatV1.21B27,2013-08-24 05:29:00,
2013-08-24 01:30:00,60.7,58.4,30.16,NNE,27,0.0,1.0,92,0.00,,,0.00,WeatherCatV1.21B27,2013-08-24 05:30:00,
2013-08-24 01:33:00,60.4,58.1,30.16,NNE,27,0.0,0.0,92,0.00,,,0.00,WeatherCatV1.21B27,2013-08-24 05:33:00,
2013-08-24 01:34:00,60.3,58.0,30.16,NNE,27,0.0,0.0,92,0.00,,,0.00,WeatherCatV1.21B27,2013-08-24 05:34:00,
2013-08-24 01:35:00,60.2,57.9,30.16,NNE,27,0.0,0.0,92,0.00,,,0.00,WeatherCatV1.21B27,2013-08-24 05:35:00,
2013-08-24 01:38:00,60.1,58.1,30.16,NNE,27,0.0,0.0,93,0.00,,,0.00,WeatherCatV1.21B27,2013-08-24 05:38:00,
2013-08-24 01:39:00,60.0,58.0,30.16,NNE,27,0.0,0.0,93,0.00,,,0.00,WeatherCatV1.21B27,2013-08-24 05:39:00,
2013-08-24 01:40:00,60.0,58.0,30.16,NNE,27,0.0,0.0,93,0.00,,,0.00,WeatherCatV1.21B27,2013-08-24 05:40:00,
2013-08-24 01:43:00,60.1,58.1,30.16,NNE,27,0.0,0.0,93,0.00,,,0.00,WeatherCatV1.21B27,2013-08-24 05:43:00,
2013-08-24 01:44:00,60.1,58.1,30.16,NNE,27,0.0,0.0,93,0.00,,,0.00,WeatherCatV1.21B27,2013-08-24 05:44:00,
2013-08-24 01:45:00,60.1,58.1,30.16,NNE,27,0.0,0.0,93,0.00,,,0.00,WeatherCatV1.21B27,2013-08-24 05:45:00,
2013-08-24 01:48:00,60.1,58.1,30.16,NNE,27,0.0,0.0,93,0.00,,,0.00,WeatherCatV1.21B27,2013-08-24 05:48:00,
2013-08-24 01:49:00,60.1,58.1,30.16,NNE,27,0.0,0.0,93,0.00,,,0.00,WeatherCatV1.21B27,2013-08-24 05:49:00,
2013-08-24 01:50:00,60.1,58.1,30.16,NNE,27,0.0,0.0,93,0.00,,,0.00,WeatherCatV1.21B27,2013-08-24 05:50:00,
2013-08-24 01:51:00,60.2,58.2,30.16,NNE,27,0.0,0.0,93,0.00,,,0.00,WeatherCatV1.21B27,2013-08-24 05:51:00,
2013-08-24 01:53:00,60.3,58.3,30.17,NNE,27,0.0,1.0,93,0.00,,,0.00,WeatherCatV1.21B27,2013-08-24 05:53:00,
2013-08-24 01:54:00,60.3,58.3,30.17,NNE,27,0.0,0.0,93,0.00,,,0.00,WeatherCatV1.21B27,2013-08-24 05:54:00,
2013-08-24 01:55:00,60.4,58.4,30.17,NNE,27,0.0,0.0,93,0.00,,,0.00,WeatherCatV1.21B27,2013-08-24 05:55:00,
2013-08-24 01:56:00,60.4,58.4,30.17,NNE,27,0.0,0.0,93,0.00,,,0.00,WeatherCatV1.21B27,2013-08-24 05:56:00,
2013-08-24 01:58:00,60.6,58.6,30.16,NNE,27,0.0,0.0,93,0.00,,,0.00,WeatherCatV1.21B27,2013-08-24 05:58:00,
2013-08-24 01:59:00,60.7,58.4,30.16,NNE,19,0.0,0.0,92,0.00,,,0.00,WeatherCatV1.21B27,2013-08-24 05:59:00,
2013-08-24 02:00:00,60.7,58.4,30.16,NNW,342,1.0,1.0,92,0.00,,,0.00,WeatherCatV1.21B27,2013-08-24 06:00:00,
2013-08-24 02:01:00,60.8,58.5,30.16,West,279,0.0,1.0,92,0.00,,,0.00,WeatherCatV1.21B27,2013-08-24 06:01:00,
2013-08-24 02:03:00,60.7,58.0,30.16,West,281,0.0,0.0,91,0.00,,,0.00,WeatherCatV1.21B27,2013-08-24 06:03:00,
2013-08-24 02:04:00,60.7,58.0,30.16,West,281,0.0,0.0,91,0.00,,,0.00,WeatherCatV1.21B27,2013-08-24 06:04:00,
2013-08-24 02:05:00,60.7,58.0,30.16,West,281,0.0,0.0,91,0.00,,,0.00,WeatherCatV1.21B27,2013-08-24 06:05:00,
2013-08-24 02:06:00,60.7,58.0,30.16,West,281,0.0,0.0,91,0.00,,,0.00,WeatherCatV1.21B27,2013-08-24 06:06:00,
2013-08-24 02:08:00,60.5,57.9,30.16,WSW,256,0.0,0.0,91,0.00,,,0.00,WeatherCatV1.21B27,2013-08-24 06:08:00,
2013-08-24 02:09:00,60.5,57.9,30.16,WNW,287,0.0,1.0,91,0.00,,,0.00,WeatherCatV1.21B27,2013-08-24 06:09:00,
2013-08-24 02:10:00,60.5,57.9,30.16,WNW,288,0.0,1.0,91,0.00,,,0.00,WeatherCatV1.21B27,2013-08-24 06:10:00,
2013-08-24 02:11:00,60.5,57.9,30.16,NW,325,0.0,1.0,91,0.00,,,0.00,WeatherCatV1.21B27,2013-08-24 06:11:00,
2013-08-24 02:13:00,60.5,57.5,30.16,NNW,331,0.0,2.0,90,0.00,,,0.00,WeatherCatV1.21B27,2013-08-24 06:13:00,
2013-08-24 02:15:00,60.5,57.5,30.16,NW,325,0.0,1.0,90,0.00,,,0.00,WeatherCatV1.21B27,2013-08-24 06:15:00,
2013-08-24 02:16:00,60.5,57.5,30.16,NW,325,0.0,1.0,90,0.00,,,0.00,WeatherCatV1.21B27,2013-08-24 06:16:00,
2013-08-24 02:18:00,60.5,57.5,30.16,NW,318,0.0,1.0,90,0.00,,,0.00,WeatherCatV1.21B27,2013-08-24 06:18:00,
2013-08-24 02:20:00,60.5,57.5,30.16,NW,308,0.0,2.0,90,0.00,,,0.00,WeatherCatV1.21B27,2013-08-24 06:20:00,
2013-08-24 02:21:00,60.5,57.5,30.16,NW,305,1.0,2.0,90,0.00,,,0.00,WeatherCatV1.21B27,2013-08-24 06:21:00,
2013-08-24 02:22:00,60.5,57.5,30.16,NW,305,0.0,2.0,90,0.00,,,0.00,WeatherCatV1.21B27,2013-08-24 06:22:00,
2013-08-24 02:24:00,60.5,57.5,30.16,WNW,294,0.0,2.0,90,0.00,,,0.00,WeatherCatV1.21B27,2013-08-24 06:24:00,
2013-08-24 02:26:00,60.5,57.2,30.16,NW,321,0.0,2.0,89,0.00,,,0.00,WeatherCatV1.21B27,2013-08-24 06:26:00,
2013-08-24 02:27:00,60.5,57.5,30.16,WNW,284,0.0,3.0,90,0.00,,,0.00,WeatherCatV1.21B27,2013-08-24 06:27:00,
2013-08-24 02:29:00,60.5,57.2,30.17,WNW,286,0.0,1.0,89,0.00,,,0.00,WeatherCatV1.21B27,2013-08-24 06:29:00,
2013-08-24 02:31:00,60.5,57.2,30.17,WNW,286,1.0,1.0,89,0.00,,,0.00,WeatherCatV1.21B27,2013-08-24 06:31:00,
2013-08-24 02:32:00,60.6,57.3,30.17,NW,306,1.0,4.0,89,0.00,,,0.00,WeatherCatV1.21B27,2013-08-24 06:32:00,
2013-08-24 02:34:00,60.6,57.3,30.17,NNW,332,0.0,2.0,89,0.00,,,0.00,WeatherCatV1.21B27,2013-08-24 06:34:00,
2013-08-24 02:36:00,60.6,57.3,30.17,NW,325,0.0,1.0,89,0.00,,,0.00,WeatherCatV1.21B27,2013-08-24 06:36:00,
2013-08-24 02:37:00,60.6,57.3,30.17,NNW,327,0.0,1.0,89,0.00,,,0.00,WeatherCatV1.21B27,2013-08-24 06:37:00,
2013-08-24 02:39:00,60.7,57.4,30.17,NW,305,0.0,2.0,89,0.00,,,0.00,WeatherCatV1.21B27,2013-08-24 06:39:00,
2013-08-24 02:41:00,60.7,57.4,30.17,NW,307,0.0,0.0,89,0.00,,,0.00,WeatherCatV1.21B27,2013-08-24 06:41:00,
2013-08-24 02:42:00,60.7,57.4,30.17,NW,311,0.0,2.0,89,0.00,,,0.00,WeatherCatV1.21B27,2013-08-24 06:42:00,
2013-08-24 02:44:00,60.6,57.3,30.17,NW,319,0.0,0.0,89,0.00,,,0.00,WeatherCatV1.21B27,2013-08-24 06:44:00,
2013-08-24 02:46:00,60.6,57.3,30.17,NW,315,0.0,1.0,89,0.00,,,0.00,WeatherCatV1.21B27,2013-08-24 06:46:00,
2013-08-24 02:47:00,60.6,57.3,30.17,NW,316,0.0,1.0,89,0.00,,,0.00,WeatherCatV1.21B27,2013-08-24 06:47:00,
2013-08-24 02:49:00,60.5,57.2,30.17,NW,315,0.0,0.0,89,0.00,,,0.00,WeatherCatV1.21B27,2013-08-24 06:49:00,
2013-08-24 02:51:00,60.4,57.1,30.17,NW,315,0.0,0.0,89,0.00,,,0.00,WeatherCatV1.21B27,2013-08-24 06:51:00,
2013-08-24 02:52:00,60.4,57.1,30.17,NW,315,0.0,0.0,89,0.00,,,0.00,WeatherCatV1.21B27,2013-08-24 06:52:00,
2013-08-24 02:54:00,60.3,57.3,30.18,NW,317,0.0,0.0,90,0.00,,,0.00,WeatherCatV1.21B27,2013-08-24 06:54:00,
2013-08-24 02:57:00,60.3,57.3,30.18,NW,317,0.0,0.0,90,0.00,,,0.00,WeatherCatV1.21B27,2013-08-24 06:57:00,
2013-08-24 02:58:00,60.3,57.3,30.18,NW,317,0.0,0.0,90,0.00,,,0.00,WeatherCatV1.21B27,2013-08-24 06:58:00,
2013-08-24 02:59:00,60.2,57.2,30.18,NW,317,0.0,0.0,90,0.00,,,0.00,WeatherCatV1.21B27,2013-08-24 06:59:00,
2013-08-24 03:02:00,60.2,57.6,30.18,NW,317,0.0,0.0,91,0.00,,,0.00,WeatherCatV1.21B27,2013-08-24 07:02:00,
2013-08-24 03:03:00,60.2,57.6,30.18,NW,317,0.0,0.0,91,0.00,,,0.00,WeatherCatV1.21B27,2013-08-24 07:03:00,
2013-08-24 03:04:00,60.2,57.6,30.18,NW,317,0.0,0.0,91,0.00,,,0.00,WeatherCatV1.21B27,2013-08-24 07:04:00,
2013-08-24 03:07:00,60.3,57.7,30.18,NW,315,0.0,1.0,91,0.00,,,0.00,WeatherCatV1.21B27,2013-08-24 07:07:00,
2013-08-24 03:08:00,60.4,57.8,30.18,NW,315,0.0,1.0,91,0.00,,,0.00,WeatherCatV1.21B27,2013-08-24 07:08:00,
2013-08-24 03:09:00,60.5,57.5,30.18,NW,315,0.0,0.0,90,0.00,,,0.00,WeatherCatV1.21B27,2013-08-24 07:09:00,
2013-08-24 03:12:00,60.5,57.9,30.18,NW,315,0.0,0.0,91,0.00,,,0.00,WeatherCatV1.21B27,2013-08-24 07:12:00,
2013-08-24 03:13:00,60.5,57.9,30.18,NW,313,0.0,0.0,91,0.00,,,0.00,WeatherCatV1.21B27,2013-08-24 07:13:00,
2013-08-24 03:15:00,60.5,57.9,30.18,NW,311,0.0,0.0,91,0.00,,,0.00,WeatherCatV1.21B27,2013-08-24 07:15:00,
2013-08-24 03:17:00,60.6,58.0,30.19,NW,311,0.0,0.0,91,0.00,,,0.00,WeatherCatV1.21B27,2013-08-24 07:17:00,
2013-08-24 03:18:00,60.7,58.0,30.19,NW,311,0.0,0.0,91,0.00,,,0.00,WeatherCatV1.21B27,2013-08-24 07:18:00,
2013-08-24 03:20:00,60.7,58.0,30.19,NW,311,0.0,0.0,91,0.00,,,0.00,WeatherCatV1.21B27,2013-08-24 07:20:00,
2013-08-24 03:23:00,60.7,58.0,30.19,NW,311,0.0,0.0,91,0.00,,,0.00,WeatherCatV1.21B27,2013-08-24 07:23:00,
2013-08-24 03:24:00,60.7,58.0,30.19,NW,311,0.0,0.0,91,0.00,,,0.00,WeatherCatV1.21B27,2013-08-24 07:24:00,
2013-08-24 03:25:00,60.7,58.0,30.19,NW,311,0.0,0.0,91,0.00,,,0.00,WeatherCatV1.21B27,2013-08-24 07:25:00,
2013-08-24 03:28:00,60.7,58.0,30.19,NW,311,0.0,0.0,91,0.00,,,0.00,WeatherCatV1.21B27,2013-08-24 07:28:00,
2013-08-24 03:29:00,60.7,58.0,30.19,NW,311,0.0,0.0,91,0.00,,,0.00,WeatherCatV1.21B27,2013-08-24 07:29:00,
2013-08-24 03:30:00,60.7,58.0,30.19,NW,311,0.0,0.0,91,0.00,,,0.00,WeatherCatV1.21B27,2013-08-24 07:30:00,
2013-08-24 03:33:00,60.8,58.2,30.19,NW,311,0.0,0.0,91,0.00,,,0.00,WeatherCatV1.21B27,2013-08-24 07:33:00,
2013-08-24 03:34:00,60.8,58.2,30.19,NW,306,0.0,2.0,91,0.00,,,0.00,WeatherCatV1.21B27,2013-08-24 07:34:00,
2013-08-24 03:35:00,60.8,58.2,30.19,NW,305,0.0,3.0,91,0.00,,,0.00,WeatherCatV1.21B27,2013-08-24 07:35:00,
2013-08-24 03:38:00,60.8,58.2,30.19,NW,319,0.0,0.0,91,0.00,,,0.00,WeatherCatV1.21B27,2013-08-24 07:38:00,
2013-08-24 03:39:00,60.8,58.2,30.19,NW,319,0.0,0.0,91,0.00,,,0.00,WeatherCatV1.21B27,2013-08-24 07:39:00,
2013-08-24 03:40:00,60.8,58.2,30.19,WNW,298,0.0,1.0,91,0.00,,,0.00,WeatherCatV1.21B27,2013-08-24 07:40:00,
2013-08-24 03:43:00,60.9,58.2,30.19,NNW,333,0.0,2.0,91,0.00,,,0.00,WeatherCatV1.21B27,2013-08-24 07:43:00,
2013-08-24 03:44:00,60.9,58.2,30.19,NW,310,1.0,2.0,91,0.00,,,0.00,WeatherCatV1.21B27,2013-08-24 07:44:00,
2013-08-24 03:45:00,61.0,58.3,30.19,WNW,292,0.0,2.0,91,0.00,,,0.00,WeatherCatV1.21B27,2013-08-24 07:45:00,
2013-08-24 03:48:00,61.2,58.5,30.19,WNW,290,1.0,3.0,91,0.00,,,0.00,WeatherCatV1.21B27,2013-08-24 07:48:00,
2013-08-24 03:50:00,61.4,58.4,30.19,NW,310,1.0,3.0,90,0.00,,,0.00,WeatherCatV1.21B27,2013-08-24 07:50:00,
2013-08-24 03:53:00,61.7,58.7,30.19,NNE,14,2.0,4.0,90,0.00,,,0.00,WeatherCatV1.21B27,2013-08-24 07:53:00,
2013-08-24 03:55:00,61.9,58.9,30.20,NW,313,2.0,5.0,90,0.00,,,0.00,WeatherCatV1.21B27,2013-08-24 07:55:00,
2013-08-24 03:59:00,62.3,59.0,30.20,NW,305,1.0,4.0,89,0.00,,,0.00,WeatherCatV1.21B27,2013-08-24 07:59:00,
2013-08-24 04:00:00,62.4,58.8,30.20,WNW,298,2.0,3.0,88,0.00,,,0.00,WeatherCatV1.21B27,2013-08-24 08:00:00,
2013-08-24 04:01:00,62.4,58.8,30.20,NNE,21,2.0,4.0,88,0.00,,,0.00,WeatherCatV1.21B27,2013-08-24 08:01:00,
2013-08-24 04:04:00,62.5,58.9,30.20,NW,311,0.0,4.0,88,0.00,,,0.00,WeatherCatV1.21B27,2013-08-24 08:04:00,
2013-08-24 04:05:00,62.5,58.9,30.20,NW,317,4.0,5.0,88,0.00,,,0.00,WeatherCatV1.21B27,2013-08-24 08:05:00,
2013-08-24 04:06:00,62.5,58.9,30.20,WNW,292,0.0,5.0,88,0.00,,,0.00,WeatherCatV1.21B27,2013-08-24 08:06:00,
2013-08-24 04:09:00,62.6,59.0,30.20,NW,318,3.0,3.0,88,0.00,,,0.00,WeatherCatV1.21B27,2013-08-24 08:09:00,
2013-08-24 04:11:00,62.8,58.9,30.20,WNW,292,2.0,6.0,87,0.00,,,0.00,WeatherCatV1.21B27,2013-08-24 08:11:00,
2013-08-24 04:14:00,62.9,59.0,30.20,NW,326,3.0,4.0,87,0.00,,,0.00,WeatherCatV1.21B27,2013-08-24 08:14:00,
2013-08-24 04:16:00,63.0,59.1,30.20,NNW,328,3.0,5.0,87,0.00,,,0.00,WeatherCatV1.21B27,2013-08-24 08:16:00,
2013-08-24 04:19:00,63.0,59.1,30.20,West,268,5.0,6.0,87,0.00,,,0.00,WeatherCatV1.21B27,2013-08-24 08:19:00,
2013-08-24 04:21:00,63.1,58.8,30.20,NNE,14,2.0,8.0,86,0.00,,,0.00,WeatherCatV1.21B27,2013-08-24 08:21:00,
2013-08-24 04:24:00,63.2,58.9,30.20,NNE,12,3.0,7.0,86,0.00,,,0.00,WeatherCatV1.21B27,2013-08-24 08:24:00,
2013-08-24 04:26:00,63.2,58.9,30.20,NW,321,3.0,6.0,86,0.00,,,0.00,WeatherCatV1.21B27,2013-08-24 08:26:00,
2013-08-24 04:27:00,63.2,58.9,30.20,NW,308,2.0,4.0,86,0.00,,,0.00,WeatherCatV1.21B27,2013-08-24 08:27:00,
2013-08-24 04:29:00,63.2,58.9,30.20,WNW,293,3.0,7.0,86,0.00,,,0.00,WeatherCatV1.21B27,2013-08-24 08:29:00,
2013-08-24 04:31:00,63.2,58.9,30.20,North,351,7.0,7.0,86,0.00,,,0.00,WeatherCatV1.21B27,2013-08-24 08:31:00,
2013-08-24 04:32:00,63.2,58.9,30.20,NW,321,4.0,7.0,86,0.00,,,0.00,WeatherCatV1.21B27,2013-08-24 08:32:00,
2013-08-24 04:34:00,63.3,59.0,30.21,WNW,300,2.0,5.0,86,0.00,,,0.00,WeatherCatV1.21B27,2013-08-24 08:34:00,
2013-08-24 04:37:00,63.3,58.7,30.21,NW,305,5.0,7.0,85,0.00,,,0.00,WeatherCatV1.21B27,2013-08-24 08:37:00,
2013-08-24 04:39:00,63.3,58.7,30.21,NW,311,6.0,6.0,85,0.00,,,0.00,WeatherCatV1.21B27,2013-08-24 08:39:00,
2013-08-24 04:40:00,63.3,58.7,30.21,NNW,344,7.0,7.0,85,0.00,,,0.00,WeatherCatV1.21B27,2013-08-24 08:40:00,
2013-08-24 04:42:00,63.3,58.7,30.21,NW,304,3.0,5.0,85,0.00,,,0.00,WeatherCatV1.21B27,2013-08-24 08:42:00,
2013-08-24 04:43:00,63.3,58.7,30.21,ENE,65,3.0,5.0,85,0.00,,,0.00,WeatherCatV1.21B27,2013-08-24 08:43:00,
2013-08-24 04:45:00,63.3,58.7,30.21,NW,312,5.0,5.0,85,0.00,,,0.00,WeatherCatV1.21B27,2013-08-24 08:45:00,
2013-08-24 04:47:00,63.3,58.7,30.21,NNE,18,3.0,5.0,85,0.00,,,0.00,WeatherCatV1.21B27,2013-08-24 08:47:00,
2013-08-24 04:48:00,63.3,58.7,30.21,NW,313,0.0,5.0,85,0.00,,,0.00,WeatherCatV1.21B27,2013-08-24 08:48:00,
2013-08-24 04:50:00,63.2,58.6,30.21,NW,326,4.0,4.0,85,0.00,,,0.00,WeatherCatV1.21B27,2013-08-24 08:50:00,
2013-08-24 04:53:00,63.2,58.6,30.22,NW,325,1.0,8.0,85,0.00,,,0.00,WeatherCatV1.21B27,2013-08-24 08:53:00,
2013-08-24 04:55:00,63.2,58.3,30.22,WNW,295,3.0,7.0,84,0.00,,,0.00,WeatherCatV1.21B27,2013-08-24 08:55:00,
2013-08-24 04:58:00,63.2,58.3,30.22,ENE,59,2.0,3.0,84,0.00,,,0.00,WeatherCatV1.21B27,2013-08-24 08:58:00,
2013-08-24 05:00:00,63.2,58.3,30.22,WNW,296,0.0,7.0,84,0.00,,,0.00,WeatherCatV1.21B27,2013-08-24 09:00:00,
2013-08-24 05:03:00,63.1,58.2,30.22,ENE,59,1.0,4.0,84,0.00,,,0.00,WeatherCatV1.21B27,2013-08-24 09:03:00,
2013-08-24 05:05:00,63.1,58.2,30.22,NNW,336,1.0,6.0,84,0.00,,,0.00,WeatherCatV1.21B27,2013-08-24 09:05:00,
2013-08-24 05:08:00,63.1,58.2,30.22,NW,311,4.0,5.0,84,0.00,,,0.00,WeatherCatV1.21B27,2013-08-24 09:08:00,
2013-08-24 05:09:00,63.1,58.2,30.22,NW,309,1.0,5.0,84,0.00,,,0.00,WeatherCatV1.21B27,2013-08-24 09:09:00,
2013-08-24 05:10:00,63.1,58.2,30.22,NW,304,4.0,4.0,84,0.00,,,0.00,WeatherCatV1.21B27,2013-08-24 09:10:00,
2013-08-24 05:13:00,63.1,57.8,30.22,NW,325,1.0,7.0,83,0.00,,,0.00,WeatherCatV1.21B27,2013-08-24 09:13:00,
2013-08-24 05:14:00,63.1,57.8,30.22,NW,312,4.0,7.0,83,0.00,,,0.00,WeatherCatV1.21B27,2013-08-24 09:14:00,
2013-08-24 05:15:00,63.1,57.8,30.22,WSW,248,4.0,7.0,83,0.00,,,0.00,WeatherCatV1.21B27,2013-08-24 09:15:00,
2013-08-24 05:18:00,63.0,57.8,30.22,NW,309,2.0,7.0,83,0.00,,,0.00,WeatherCatV1.21B27,2013-08-24 09:18:00,
2013-08-24 05:19:00,63.0,57.8,30.22,WNW,295,4.0,7.0,83,0.00,,,0.00,WeatherCatV1.21B27,2013-08-24 09:19:00,
2013-08-24 05:20:00,63.0,57.8,30.22,WNW,290,2.0,7.0,83,0.00,,,0.00,WeatherCatV1.21B27,2013-08-24 09:20:00,
2013-08-24 05:21:00,63.0,57.8,30.22,NE,49,1.0,6.0,83,0.00,,,0.00,WeatherCatV1.21B27,2013-08-24 09:21:00,
2013-08-24 05:23:00,63.0,57.8,30.22,NW,313,7.0,8.0,83,0.00,,,0.00,WeatherCatV1.21B27,2013-08-24 09:23:00,
2013-08-24 05:24:00,63.0,57.8,30.22,NW,308,4.0,8.0,83,0.00,,,0.00,WeatherCatV1.21B27,2013-08-24 09:24:00,
2013-08-24 05:26:00,63.0,57.8,30.22,West,273,1.0,5.0,83,0.00,,,0.00,WeatherCatV1.21B27,2013-08-24 09:26:00,
2013-08-24 05:28:00,62.9,57.7,30.23,NNW,327,3.0,4.0,83,0.00,,,0.00,WeatherCatV1.21B27,2013-08-24 09:28:00,
2013-08-24 05:29:00,62.9,57.7,30.23,WNW,296,1.0,3.0,83,0.00,,,0.00,WeatherCatV1.21B27,2013-08-24 09:29:00,
2013-08-24 05:31:00,62.9,57.7,30.23,WNW,298,3.0,3.0,83,0.00,,,0.00,WeatherCatV1.21B27,2013-08-24 09:31:00,
2013-08-24 05:34:00,62.8,57.5,30.23,NNW,341,1.0,6.0,83,0.00,,,0.00,WeatherCatV1.21B27,2013-08-24 09:34:00,
2013-08-24 05:36:00,62.8,57.5,30.23,NNW,344,0.0,3.0,83,0.00,,,0.00,WeatherCatV1.21B27,2013-08-24 09:36:00,
2013-08-24 05:39:00,62.7,57.5,30.23,NNW,333,2.0,4.0,83,0.00,,,0.00,WeatherCatV1.21B27,2013-08-24 09:39:00,
2013-08-24 05:41:00,62.7,57.5,30.23,WNW,303,4.0,6.0,83,0.00,,,0.00,WeatherCatV1.21B27,2013-08-24 09:41:00,
2013-08-24 05:44:00,62.6,57.4,30.24,NW,323,1.0,3.0,83,0.00,,,0.00,WeatherCatV1.21B27,2013-08-24 09:44:00,
2013-08-24 05:45:00,62.6,57.4,30.24,NNW,344,1.0,4.0,83,0.00,,,0.00,WeatherCatV1.21B27,2013-08-24 09:45:00,
2013-08-24 05:46:00,62.6,57.4,30.24,NNE,24,1.0,6.0,83,0.00,,,0.00,WeatherCatV1.21B27,2013-08-24 09:46:00,
2013-08-24 05:49:00,62.5,57.3,30.24,NW,323,5.0,5.0,83,0.00,,,0.00,WeatherCatV1.21B27,2013-08-24 09:49:00,
2013-08-24 05:50:00,62.6,57.4,30.24,WNW,292,1.0,5.0,83,0.00,,,0.00,WeatherCatV1.21B27,2013-08-24 09:50:00,
2013-08-24 05:51:00,62.6,57.4,30.24,WNW,290,7.0,7.0,83,0.00,,,0.00,WeatherCatV1.21B27,2013-08-24 09:51:00,
2013-08-24 05:54:00,62.6,57.4,30.24,WNW,288,1.0,8.0,83,0.00,,,0.00,WeatherCatV1.21B27,2013-08-24 09:54:00,
2013-08-24 05:55:00,62.6,57.4,30.24,NW,304,2.0,8.0,83,0.00,,,0.00,WeatherCatV1.21B27,2013-08-24 09:55:00,
2013-08-24 05:56:00,62.6,57.4,30.24,NW,307,2.0,3.0,83,0.00,,,0.00,WeatherCatV1.21B27,2013-08-24 09:56:00,
2013-08-24 05:59:00,62.5,57.3,30.24,WNW,292,1.0,6.0,83,0.00,,,0.00,WeatherCatV1.21B27,2013-08-24 09:59:00,
2013-08-24 06:00:00,62.5,57.3,30.24,NW,319,2.0,6.0,83,0.00,,,0.00,WeatherCatV1.21B27,2013-08-24 10:00:00,
2013-08-24 06:01:00,62.5,57.3,30.24,ESE,106,1.0,4.0,83,0.00,,,0.00,WeatherCatV1.21B27,2013-08-24 10:01:00,
2013-08-24 06:02:00,62.5,57.3,30.24,ENE,73,1.0,4.0,83,0.00,,,0.00,WeatherCatV1.21B27,2013-08-24 10:02:00,
2013-08-24 06:05:00,62.4,57.2,30.25,NW,314,0.0,3.0,83,0.00,,,0.00,WeatherCatV1.21B27,2013-08-24 10:05:00,
2013-08-24 06:06:00,62.3,57.1,30.25,NW,314,3.0,6.0,83,0.00,,,0.00,WeatherCatV1.21B27,2013-08-24 10:06:00,
2013-08-24 06:07:00,62.3,57.1,30.25,North,349,5.0,6.0,83,0.00,,,0.00,WeatherCatV1.21B27,2013-08-24 10:07:00,
2013-08-24 06:10:00,62.2,57.0,30.25,North,351,3.0,5.0,83,0.00,,,0.00,WeatherCatV1.21B27,2013-08-24 10:10:00,
2013-08-24 06:11:00,62.2,57.0,30.25,NNW,344,4.0,7.0,83,0.00,,,0.00,WeatherCatV1.21B27,2013-08-24 10:11:00,
2013-08-24 06:12:00,62.2,57.0,30.25,NNW,342,1.0,7.0,83,0.00,,,0.00,WeatherCatV1.21B27,2013-08-24 10:12:00,
2013-08-24 06:15:00,62.2,57.3,30.25,NNW,330,2.0,4.0,84,0.00,,,0.00,WeatherCatV1.21B27,2013-08-24 10:15:00,
2013-08-24 06:16:00,62.2,57.3,30.25,NNW,331,1.0,4.0,84,0.00,,,0.00,WeatherCatV1.21B27,2013-08-24 10:16:00,
2013-08-24 06:17:00,62.2,57.3,30.25,East,80,1.0,2.0,84,0.00,,,0.00,WeatherCatV1.21B27,2013-08-24 10:17:00,
2013-08-24 06:20:00,62.1,57.2,30.26,WNW,290,1.0,3.0,84,0.00,,,0.00,WeatherCatV1.21B27,2013-08-24 10:20:00,
2013-08-24 06:21:00,62.1,57.2,30.25,NW,312,5.0,5.0,84,0.00,,,0.00,WeatherCatV1.21B27,2013-08-24 10:21:00,
2013-08-24 06:22:00,62.1,57.2,30.25,NW,316,4.0,6.0,84,0.00,,,0.00,WeatherCatV1.21B27,2013-08-24 10:22:00,
2013-08-24 06:25:00,62.1,57.2,30.25,WNW,300,2.0,5.0,84,0.00,,,0.00,WeatherCatV1.21B27,2013-08-24 10:25:00,
2013-08-24 06:26:00,62.0,57.1,30.25,NW,306,3.0,4.0,84,0.00,,,0.00,WeatherCatV1.21B27,2013-08-24 10:26:00,
2013-08-24 06:27:00,62.0,57.1,30.25,West,279,4.0,4.0,84,0.00,,,0.00,WeatherCatV1.21B27,2013-08-24 10:27:00,
2013-08-24 06:31:00,62.0,57.1,30.25,WNW,298,2.0,4.0,84,0.00,,,0.00,WeatherCatV1.21B27,2013-08-24 10:31:00,
2013-08-24 06:32:00,62.0,57.1,30.25,NNE,22,1.0,8.0,84,0.00,,,0.00,WeatherCatV1.21B27,2013-08-24 10:32:00,
2013-08-24 06:33:00,62.0,57.1,30.25,NW,315,2.0,8.0,84,0.00,,,0.00,WeatherCatV1.21B27,2013-08-24 10:33:00,
2013-08-24 06:36:00,61.9,57.3,30.26,WNW,295,3.0,4.0,85,0.00,,,0.00,WeatherCatV1.21B27,2013-08-24 10:36:00,
2013-08-24 06:37:00,61.9,57.3,30.26,NE,53,5.0,5.0,85,0.00,,,0.00,WeatherCatV1.21B27,2013-08-24 10:37:00,
2013-08-24 06:38:00,61.9,57.3,30.26,WNW,294,2.0,5.0,85,0.00,,,0.00,WeatherCatV1.21B27,2013-08-24 10:38:00,
2013-08-24 06:41:00,61.9,57.3,30.26,NW,319,2.0,3.0,85,0.00,,,0.00,WeatherCatV1.21B27,2013-08-24 10:41:00,
2013-08-24 06:42:00,61.9,57.3,30.26,West,276,1.0,4.0,85,0.00,,,0.00,WeatherCatV1.21B27,2013-08-24 10:42:00,
2013-08-24 06:43:00,61.9,57.3,30.26,WNW,302,1.0,4.0,85,0.00,,,0.00,WeatherCatV1.21B27,2013-08-24 10:43:00,
2013-08-24 06:44:00,61.9,57.3,30.26,NW,325,3.0,5.0,85,0.00,,,0.00,WeatherCatV1.21B27,2013-08-24 10:44:00,
2013-08-24 06:46:00,61.9,57.3,30.26,NW,318,0.0,6.0,85,0.00,,,0.00,WeatherCatV1.21B27,2013-08-24 10:46:00,
2013-08-24 06:47:00,61.9,57.3,30.26,NNE,22,0.0,3.0,85,0.00,,,0.00,WeatherCatV1.21B27,2013-08-24 10:47:00,
2013-08-24 06:48:00,61.9,57.3,30.26,NE,46,0.0,2.0,85,0.00,,,0.00,WeatherCatV1.21B27,2013-08-24 10:48:00,
2013-08-24 06:49:00,61.9,57.3,30.26,North,350,3.0,3.0,85,0.00,,,0.00,WeatherCatV1.21B27,2013-08-24 10:49:00,
2013-08-24 06:51:00,62.0,57.4,30.26,North,10,2.0,6.0,85,0.00,,,0.00,WeatherCatV1.21B27,2013-08-24 10:51:00,
2013-08-24 06:52:00,62.0,57.4,30.26,West,277,0.0,6.0,85,0.00,,,0.00,WeatherCatV1.21B27,2013-08-24 10:52:00,
2013-08-24 06:53:00,62.0,57.4,30.26,NE,41,2.0,3.0,85,0.00,,,0.00,WeatherCatV1.21B27,2013-08-24 10:53:00,
2013-08-24 06:54:00,62.1,57.5,30.26,NE,34,1.0,4.0,85,0.00,,,0.00,WeatherCatV1.21B27,2013-08-24 10:54:00,
2013-08-24 06:56:00,62.3,57.7,30.27,WNW,302,2.0,3.0,85,0.00,,,0.00,WeatherCatV1.21B27,2013-08-24 10:56:00,
2013-08-24 06:57:00,62.4,57.8,30.27,NW,315,5.0,5.0,85,0.00,,,0.00,WeatherCatV1.21B27,2013-08-24 10:57:00,
2013-08-24 06:58:00,62.5,57.9,30.26,NW,311,3.0,5.0,85,0.00,,,0.00,WeatherCatV1.21B27,2013-08-24 10:58:00,
2013-08-24 06:59:00,62.6,58.0,30.27,NW,313,5.0,6.0,85,0.00,,,0.00,WeatherCatV1.21B27,2013-08-24 10:59:00,
2013-08-24 07:02:00,62.8,58.2,30.27,ENE,76,2.0,7.0,85,0.00,,,0.00,WeatherCatV1.21B27,2013-08-24 11:02:00,
2013-08-24 07:03:00,62.9,58.3,30.27,WSW,242,0.0,3.0,85,0.00,,,0.00,WeatherCatV1.21B27,2013-08-24 11:03:00,
2013-08-24 07:04:00,63.0,58.4,30.27,WNW,284,1.0,6.0,85,0.00,,,0.00,WeatherCatV1.21B27,2013-08-24 11:04:00,
2013-08-24 07:07:00,63.2,58.6,30.27,WNW,298,0.0,4.0,85,0.00,,,0.00,WeatherCatV1.21B27,2013-08-24 11:07:00,
2013-08-24 07:08:00,63.2,58.6,30.27,NW,304,6.0,6.0,85,0.00,,,0.00,WeatherCatV1.21B27,2013-08-24 11:08:00,
2013-08-24 07:09:00,63.4,58.5,30.27,WNW,289,4.0,7.0,84,0.00,,,0.00,WeatherCatV1.21B27,2013-08-24 11:09:00,
2013-08-24 07:12:00,63.5,58.6,30.27,NW,315,1.0,4.0,84,0.00,,,0.00,WeatherCatV1.21B27,2013-08-24 11:12:00,
2013-08-24 07:13:00,63.6,58.7,30.27,WNW,295,3.0,4.0,84,0.00,,,0.00,WeatherCatV1.21B27,2013-08-24 11:13:00,
2013-08-24 07:14:00,63.7,58.8,30.27,WNW,293,6.0,8.0,84,0.00,,,0.00,WeatherCatV1.21B27,2013-08-24 11:14:00,
2013-08-24 07:18:00,63.9,58.6,30.27,NNW,348,3.0,8.0,83,0.00,,,0.00,WeatherCatV1.21B27,2013-08-24 11:18:00,
2013-08-24 07:19:00,63.9,58.6,30.27,WNW,288,4.0,8.0,83,0.00,,,0.00,WeatherCatV1.21B27,2013-08-24 11:19:00,
2013-08-24 07:20:00,64.0,58.7,30.27,WNW,289,6.0,6.0,83,0.00,,,0.00,WeatherCatV1.21B27,2013-08-24 11:20:00,
2013-08-24 07:23:00,64.2,58.9,30.28,ENE,72,2.0,8.0,83,0.00,,,0.00,WeatherCatV1.21B27,2013-08-24 11:23:00,
2013-08-24 07:24:00,64.2,58.9,30.27,NW,316,2.0,4.0,83,0.00,,,0.00,WeatherCatV1.21B27,2013-08-24 11:24:00,
2013-08-24 07:25:00,64.3,59.0,30.27,WNW,294,4.0,5.0,83,0.00,,,0.00,WeatherCatV1.21B27,2013-08-24 11:25:00,
2013-08-24 07:28:00,64.5,59.2,30.27,WNW,284,5.0,6.0,83,0.00,,,0.00,WeatherCatV1.21B27,2013-08-24 11:28:00,
2013-08-24 07:29:00,64.5,59.2,30.27,WNW,296,3.0,8.0,83,0.00,,,0.00,WeatherCatV1.21B27,2013-08-24 11:29:00,
2013-08-24 07:30:00,64.6,59.3,30.27,WNW,293,2.0,5.0,83,0.00,,,0.00,WeatherCatV1.21B27,2013-08-24 11:30:00,
2013-08-24 07:33:00,64.6,59.0,30.27,NW,313,6.0,8.0,82,0.00,,,0.00,WeatherCatV1.21B27,2013-08-24 11:33:00,
2013-08-24 07:34:00,64.6,59.0,30.27,NW,312,3.0,8.0,82,0.00,,,0.00,WeatherCatV1.21B27,2013-08-24 11:34:00,
2013-08-24 07:35:00,64.6,59.0,30.27,WNW,283,2.0,8.0,82,0.00,,,0.00,WeatherCatV1.21B27,2013-08-24 11:35:00,
2013-08-24 07:38:00,64.8,59.2,30.27,WNW,295,2.0,11.0,82,0.00,,,0.00,WeatherCatV1.21B27,2013-08-24 11:38:00,
2013-08-24 07:39:00,64.8,59.2,30.27,NW,313,4.0,11.0,82,0.00,,,0.00,WeatherCatV1.21B27,2013-08-24 11:39:00,
2013-08-24 07:40:00,64.9,59.3,30.27,WSW,257,2.0,8.0,82,0.00,,,0.00,WeatherCatV1.21B27,2013-08-24 11:40:00,
2013-08-24 07:43:00,65.1,59.1,30.28,WNW,289,6.0,6.0,81,0.00,,,0.00,WeatherCatV1.21B27,2013-08-24 11:43:00,
2013-08-24 07:44:00,65.1,59.1,30.28,NNW,344,3.0,6.0,81,0.00,,,0.00,WeatherCatV1.21B27,2013-08-24 11:44:00,
2013-08-24 07:45:00,65.2,59.2,30.28,WNW,298,0.0,6.0,81,0.00,,,0.00,WeatherCatV1.21B27,2013-08-24 11:45:00,
2013-08-24 07:49:00,65.5,59.2,30.28,WSW,248,4.0,7.0,80,0.00,,,0.00,WeatherCatV1.21B27,2013-08-24 11:49:00,
2013-08-24 07:50:00,65.6,59.3,30.28,WNW,300,1.0,7.0,80,0.00,,,0.00,WeatherCatV1.21B27,2013-08-24 11:50:00,
2013-08-24 07:51:00,65.6,59.3,30.28,NW,325,5.0,6.0,80,0.00,,,0.00,WeatherCatV1.21B27,2013-08-24 11:51:00,
2013-08-24 07:54:00,65.8,59.1,30.28,NW,317,1.0,7.0,79,0.00,,,0.00,WeatherCatV1.21B27,2013-08-24 11:54:00,
2013-08-24 07:55:00,65.9,59.2,30.28,WNW,296,1.0,7.0,79,0.00,,,0.00,WeatherCatV1.21B27,2013-08-24 11:55:00,
2013-08-24 07:56:00,66.0,59.3,30.28,WNW,291,1.0,4.0,79,0.00,,,0.00,WeatherCatV1.21B27,2013-08-24 11:56:00,
2013-08-24 07:59:00,66.2,59.1,30.28,West,273,4.0,6.0,78,0.00,,,0.00,WeatherCatV1.21B27,2013-08-24 11:59:00,
2013-08-24 08:00:00,66.2,59.1,30.28,NW,309,1.0,6.0,78,0.00,,,0.00,WeatherCatV1.21B27,2013-08-24 12:00:00,
2013-08-24 08:01:00,66.3,59.2,30.28,NW,304,4.0,5.0,78,0.00,,,0.00,WeatherCatV1.21B27,2013-08-24 12:01:00,
2013-08-24 08:04:00,66.5,59.1,30.28,North,11,1.0,5.0,77,0.00,,,0.00,WeatherCatV1.21B27,2013-08-24 12:04:00,
2013-08-24 08:05:00,66.5,59.1,30.29,NNW,335,2.0,4.0,77,0.00,,,0.00,WeatherCatV1.21B27,2013-08-24 12:05:00,
2013-08-24 08:06:00,66.6,59.2,30.29,WNW,285,2.0,9.0,77,0.00,,,0.00,WeatherCatV1.21B27,2013-08-24 12:06:00,
2013-08-24 08:09:00,66.7,58.9,30.29,WNW,303,2.0,6.0,76,0.00,,,0.00,WeatherCatV1.21B27,2013-08-24 12:09:00,
2013-08-24 08:10:00,66.7,58.9,30.29,NW,315,4.0,6.0,76,0.00,,,0.00,WeatherCatV1.21B27,2013-08-24 12:10:00,
2013-08-24 08:11:00,66.7,58.5,30.29,NNW,333,6.0,8.0,75,0.00,,,0.00,WeatherCatV1.21B27,2013-08-24 12:11:00,
2013-08-24 08:14:00,66.9,59.1,30.29,NNW,342,3.0,8.0,76,0.00,,,0.00,WeatherCatV1.21B27,2013-08-24 12:14:00,
2013-08-24 08:15:00,66.9,59.1,30.29,WNW,300,6.0,8.0,76,0.00,,,0.00,WeatherCatV1.21B27,2013-08-24 12:15:00,
2013-08-24 08:16:00,67.0,59.2,30.29,NNW,339,3.0,7.0,76,0.00,,,0.00,WeatherCatV1.21B27,2013-08-24 12:16:00,
2013-08-24 08:19:00,67.0,58.8,30.29,WNW,299,7.0,10.0,75,0.00,,,0.00,WeatherCatV1.21B27,2013-08-24 12:19:00,
2013-08-24 08:20:00,67.0,58.8,30.29,West,266,3.0,10.0,75,0.00,,,0.00,WeatherCatV1.21B27,2013-08-24 12:20:00,
2013-08-24 08:21:00,67.0,59.2,30.29,North,0,9.0,9.0,76,0.00,,,0.00,WeatherCatV1.21B27,2013-08-24 12:21:00,
2013-08-24 08:24:00,67.3,59.5,30.29,NW,308,1.0,7.0,76,0.00,,,0.00,WeatherCatV1.21B27,2013-08-24 12:24:00,
2013-08-24 08:25:00,67.3,59.5,30.29,NNE,15,1.0,7.0,76,0.00,,,0.00,WeatherCatV1.21B27,2013-08-24 12:25:00,
2013-08-24 08:26:00,67.4,59.2,30.29,WNW,283,1.0,8.0,75,0.00,,,0.00,WeatherCatV1.21B27,2013-08-24 12:26:00,
2013-08-24 08:27:00,67.5,59.3,30.29,North,10,8.0,8.0,75,0.00,,,0.00,WeatherCatV1.21B27,2013-08-24 12:27:00,
2013-08-24 08:29:00,67.5,58.9,30.29,WNW,301,9.0,13.0,74,0.00,,,0.00,WeatherCatV1.21B27,2013-08-24 12:29:00,
2013-08-24 08:31:00,67.6,59.0,30.29,WSW,244,5.0,13.0,74,0.00,,,0.00,WeatherCatV1.21B27,2013-08-24 12:31:00,
2013-08-24 08:32:00,67.6,59.0,30.29,NE,41,3.0,8.0,74,0.00,,,0.00,WeatherCatV1.21B27,2013-08-24 12:32:00,
2013-08-24 08:34:00,67.6,59.0,30.29,WNW,286,2.0,11.0,74,0.00,,,0.00,WeatherCatV1.21B27,2013-08-24 12:34:00,
2013-08-24 08:36:00,67.7,58.7,30.29,NNW,345,4.0,6.0,73,0.00,,,0.00,WeatherCatV1.21B27,2013-08-24 12:36:00,
2013-08-24 08:37:00,67.7,58.7,30.29,NW,320,2.0,6.0,73,0.00,,,0.00,WeatherCatV1.21B27,2013-08-24 12:37:00,
2013-08-24 08:39:00,67.7,58.7,30.29,West,261,7.0,7.0,73,0.00,,,0.00,WeatherCatV1.21B27,2013-08-24 12:39:00,
2013-08-24 08:41:00,67.8,58.4,30.29,WNW,286,4.0,10.0,72,0.00,,,0.00,WeatherCatV1.21B27,2013-08-24 12:41:00,
2013-08-24 08:42:00,67.7,58.3,30.29,NNE,23,4.0,5.0,72,0.00,,,0.00,WeatherCatV1.21B27,2013-08-24 12:42:00,
2013-08-24 08:44:00,67.9,58.5,30.29,NW,323,4.0,6.0,72,0.00,,,0.00,WeatherCatV1.21B27,2013-08-24 12:44:00,
2013-08-24 08:46:00,68.0,58.6,30.29,NNE,19,2.0,7.0,72,0.00,,,0.00,WeatherCatV1.21B27,2013-08-24 12:46:00,
2013-08-24 08:47:00,68.0,58.6,30.29,NW,308,7.0,8.0,72,0.00,,,0.00,WeatherCatV1.21B27,2013-08-24 12:47:00,
2013-08-24 08:48:00,68.0,58.2,30.29,NW,317,4.0,9.0,71,0.00,,,0.00,WeatherCatV1.21B27,2013-08-24 12:48:00,
2013-08-24 08:49:00,68.0,58.2,30.29,WNW,293,6.0,9.0,71,0.00,,,0.00,WeatherCatV1.21B27,2013-08-24 12:49:00,
2013-08-24 08:51:00,68.0,58.2,30.29,West,262,5.0,12.0,71,0.00,,,0.00,WeatherCatV1.21B27,2013-08-24 12:51:00,
2013-08-24 08:52:00,68.0,58.2,30.29,NW,306,8.0,12.0,71,0.00,,,0.00,WeatherCatV1.21B27,2013-08-24 12:52:00,
2013-08-24 08:54:00,68.0,58.6,30.29,WNW,300,1.0,9.0,72,0.00,,,0.00,WeatherCatV1.21B27,2013-08-24 12:54:00,
2013-08-24 08:55:00,68.1,58.7,30.29,NNW,347,6.0,6.0,72,0.00,,,0.00,WeatherCatV1.21B27,2013-08-24 12:55:00,
2013-08-24 08:56:00,68.1,57.9,30.29,SW,227,6.0,11.0,70,0.00,,,0.00,WeatherCatV1.21B27,2013-08-24 12:56:00,
2013-08-24 08:57:00,68.1,57.9,30.29,WNW,300,7.0,11.0,70,0.00,,,0.00,WeatherCatV1.21B27,2013-08-24 12:57:00,
2013-08-24 08:58:00,68.1,57.9,30.29,NW,311,5.0,11.0,70,0.00,,,0.00,WeatherCatV1.21B27,2013-08-24 12:58:00,
2013-08-24 08:59:00,68.0,57.8,30.29,NNW,328,8.0,8.0,70,0.00,,,0.00,WeatherCatV1.21B27,2013-08-24 12:59:00,
2013-08-24 09:00:00,68.0,58.2,30.29,WNW,300,4.0,8.0,71,0.00,,,0.00,WeatherCatV1.21B27,2013-08-24 13:00:00,
2013-08-24 09:02:00,68.0,57.8,30.29,WNW,298,4.0,10.0,70,0.00,,,0.00,WeatherCatV1.21B27,2013-08-24 13:02:00,
2013-08-24 09:03:00,68.0,57.8,30.29,NW,315,7.0,7.0,70,0.00,,,0.00,WeatherCatV1.21B27,2013-08-24 13:03:00,
2013-08-24 09:04:00,68.1,57.9,30.29,NW,305,3.0,9.0,70,0.00,,,0.00,WeatherCatV1.21B27,2013-08-24 13:04:00,
2013-08-24 09:05:00,68.1,57.9,30.29,NNW,345,6.0,9.0,70,0.00,,,0.00,WeatherCatV1.21B27,2013-08-24 13:05:00,
2013-08-24 09:07:00,68.1,57.9,30.29,NW,314,4.0,11.0,70,0.00,,,0.00,WeatherCatV1.21B27,2013-08-24 13:07:00,
2013-08-24 09:08:00,68.2,58.0,30.29,WNW,286,4.0,8.0,70,0.00,,,0.00,WeatherCatV1.21B27,2013-08-24 13:08:00,
2013-08-24 09:10:00,68.4,58.2,30.30,ENE,75,3.0,7.0,70,0.00,,,0.00,WeatherCatV1.21B27,2013-08-24 13:10:00,
2013-08-24 09:12:00,68.6,56.8,30.30,NNE,28,12.0,12.0,66,0.00,,,0.00,WeatherCatV1.21B27,2013-08-24 13:12:00,
2013-08-24 09:13:00,68.6,56.8,30.29,NNW,331,2.0,12.0,66,0.00,,,0.00,WeatherCatV1.21B27,2013-08-24 13:13:00,
2013-08-24 09:15:00,68.7,57.3,30.30,NNW,330,4.0,9.0,67,0.00,,,0.00,WeatherCatV1.21B27,2013-08-24 13:15:00,
2013-08-24 09:17:00,68.9,57.1,30.30,NNW,333,2.0,11.0,66,0.00,,,0.00,WeatherCatV1.21B27,2013-08-24 13:17:00,
2013-08-24 09:18:00,68.9,57.1,30.30,NW,325,2.0,11.0,66,0.00,,,0.00,WeatherCatV1.21B27,2013-08-24 13:18:00,
2013-08-24 09:20:00,69.0,56.7,30.30,NW,317,5.0,10.0,65,0.00,,,0.00,WeatherCatV1.21B27,2013-08-24 13:20:00,
2013-08-24 09:22:00,69.1,56.8,30.30,NNW,344,3.0,7.0,65,0.00,,,0.00,WeatherCatV1.21B27,2013-08-24 13:22:00,
2013-08-24 09:23:00,69.1,56.8,30.30,NE,50,5.0,11.0,65,0.00,,,0.00,WeatherCatV1.21B27,2013-08-24 13:23:00,
2013-08-24 09:25:00,69.2,56.9,30.30,WNW,303,3.0,12.0,65,0.00,,,0.00,WeatherCatV1.21B27,2013-08-24 13:25:00,
2013-08-24 09:28:00,69.2,57.3,30.30,NE,36,3.0,13.0,66,0.00,,,0.00,WeatherCatV1.21B27,2013-08-24 13:28:00,
2013-08-24 09:29:00,69.2,56.9,30.30,ENE,76,6.0,8.0,65,0.00,,,0.00,WeatherCatV1.21B27,2013-08-24 13:29:00,
2013-08-24 09:30:00,69.2,56.9,30.30,NNE,20,4.0,7.0,65,0.00,,,0.00,WeatherCatV1.21B27,2013-08-24 13:30:00,
2013-08-24 09:31:00,69.1,56.8,30.30,WNW,291,3.0,7.0,65,0.00,,,0.00,WeatherCatV1.21B27,2013-08-24 13:31:00,
2013-08-24 09:33:00,69.1,56.0,30.30,NW,325,5.0,9.0,63,0.00,,,0.00,WeatherCatV1.21B27,2013-08-24 13:33:00,
2013-08-24 09:35:00,69.0,55.9,30.30,NW,325,5.0,6.0,63,0.00,,,0.00,WeatherCatV1.21B27,2013-08-24 13:35:00,
2013-08-24 09:40:00,69.0,55.9,30.30,NW,319,5.0,7.0,63,0.00,,,0.00,WeatherCatV1.21B27,2013-08-24 13:40:00,
2013-08-24 09:45:00,69.2,54.7,30.31,NW,326,5.0,12.0,60,0.00,,,0.00,WeatherCatV1.21B27,2013-08-24 13:45:00,
2013-08-24 09:50:00,69.5,54.5,30.31,NW,323,5.0,7.0,59,0.00,,,0.00,WeatherCatV1.21B27,2013-08-24 13:50:00,
2013-08-24 09:55:00,69.6,54.2,30.31,NNW,343,5.0,15.0,58,0.00,,,0.00,WeatherCatV1.21B27,2013-08-24 13:55:00,
2013-08-24 10:00:00,69.6,54.6,30.31,NNW,339,6.0,11.0,59,0.00,,,0.00,WeatherCatV1.21B27,2013-08-24 14:00:00,
2013-08-24 10:05:00,69.6,53.2,30.31,NNW,328,6.0,12.0,56,0.00,,,0.00,WeatherCatV1.21B27,2013-08-24 14:05:00,
2013-08-24 10:10:00,69.6,53.7,30.32,NNW,336,6.0,6.0,57,0.00,,,0.00,WeatherCatV1.21B27,2013-08-24 14:10:00,
2013-08-24 10:15:00,69.7,52.3,30.32,NNW,338,5.0,12.0,54,0.00,,,0.00,WeatherCatV1.21B27,2013-08-24 14:15:00,
2013-08-24 10:20:00,69.9,52.5,30.32,NNW,342,5.0,14.0,54,0.00,,,0.00,WeatherCatV1.21B27,2013-08-24 14:20:00,
2013-08-24 10:25:00,70.0,52.1,30.32,NNW,341,5.0,16.0,53,0.00,,,0.00,WeatherCatV1.21B27,2013-08-24 14:25:00,
2013-08-24 10:30:00,69.8,52.4,30.32,NNW,332,6.0,6.0,54,0.00,,,0.00,WeatherCatV1.21B27,2013-08-24 14:30:00,
2013-08-24 10:35:00,69.9,52.0,30.32,NNW,328,5.0,9.0,53,0.00,,,0.00,WeatherCatV1.21B27,2013-08-24 14:35:00,
2013-08-24 10:40:00,69.9,49.9,30.32,NNW,330,5.0,13.0,49,0.00,,,0.00,WeatherCatV1.21B27,2013-08-24 14:40:00,
2013-08-24 10:45:00,70.0,51.0,30.32,NE,43,6.0,13.0,51,0.00,,,0.00,WeatherCatV1.21B27,2013-08-24 14:45:00,
2013-08-24 10:50:00,70.1,51.1,30.32,NE,52,5.0,8.0,51,0.00,,,0.00,WeatherCatV1.21B27,2013-08-24 14:50:00,
2013-08-24 10:55:00,70.1,51.6,30.32,North,352,6.0,6.0,52,0.00,,,0.00,WeatherCatV1.21B27,2013-08-24 14:55:00,
2013-08-24 11:00:00,70.4,50.9,30.32,NNW,334,6.0,9.0,50,0.00,,,0.00,WeatherCatV1.21B27,2013-08-24 15:00:00,
2013-08-24 11:12:00,70.2,51.2,30.33,NW,325,6.0,8.0,51,0.00,,,0.00,WeatherCatV1.21B27,2013-08-24 15:12:00,
2013-08-24 11:13:00,70.2,50.7,30.32,NW,311,6.0,12.0,50,0.00,,,0.00,WeatherCatV1.21B27,2013-08-24 15:13:00,
2013-08-24 11:17:00,70.4,51.4,30.33,West,265,7.0,17.0,51,0.00,,,0.00,WeatherCatV1.21B27,2013-08-24 15:17:00,
2013-08-24 11:18:00,70.4,50.3,30.33,NW,321,4.0,17.0,49,0.00,,,0.00,WeatherCatV1.21B27,2013-08-24 15:18:00,
2013-08-24 11:22:00,70.2,51.7,30.33,NW,311,5.0,6.0,52,0.00,,,0.00,WeatherCatV1.21B27,2013-08-24 15:22:00,
2013-08-24 11:23:00,70.3,51.8,30.33,NNW,335,9.0,9.0,52,0.00,,,0.00,WeatherCatV1.21B27,2013-08-24 15:23:00,
2013-08-24 11:27:00,70.1,50.0,30.33,NNW,346,5.0,16.0,49,0.00,,,0.00,WeatherCatV1.21B27,2013-08-24 15:27:00,
2013-08-24 11:28:00,70.1,50.0,30.33,NW,313,4.0,16.0,49,0.00,,,0.00,WeatherCatV1.21B27,2013-08-24 15:28:00,
2013-08-24 11:32:00,70.1,50.0,30.33,NW,308,6.0,11.0,49,0.00,,,0.00,WeatherCatV1.21B27,2013-08-24 15:32:00,
2013-08-24 11:33:00,70.1,50.0,30.33,NW,309,4.0,11.0,49,0.00,,,0.00,WeatherCatV1.21B27,2013-08-24 15:33:00,
2013-08-24 11:37:00,69.9,49.3,30.33,NE,51,3.0,9.0,48,0.00,,,0.00,WeatherCatV1.21B27,2013-08-24 15:37:00,
2013-08-24 11:38:00,69.9,49.3,30.33,NNE,14,2.0,9.0,48,0.00,,,0.00,WeatherCatV1.21B27,2013-08-24 15:38:00,
2013-08-24 11:39:00,69.9,50.4,30.33,WNW,291,2.0,9.0,50,0.00,,,0.00,WeatherCatV1.21B27,2013-08-24 15:39:00,
2013-08-24 11:43:00,70.1,49.5,30.33,NE,51,7.0,14.0,48,0.00,,,0.00,WeatherCatV1.21B27,2013-08-24 15:43:00,
2013-08-24 11:44:00,70.1,48.9,30.33,WNW,302,6.0,10.0,47,0.00,,,0.00,WeatherCatV1.21B27,2013-08-24 15:44:00,
2013-08-24 11:48:00,70.1,48.9,30.33,WNW,296,8.0,10.0,47,0.00,,,0.00,WeatherCatV1.21B27,2013-08-24 15:48:00,
2013-08-24 11:49:00,70.1,49.5,30.33,WNW,300,8.0,12.0,48,0.00,,,0.00,WeatherCatV1.21B27,2013-08-24 15:49:00,
2013-08-24 11:53:00,70.0,49.4,30.33,WNW,290,3.0,13.0,48,0.00,,,0.00,WeatherCatV1.21B27,2013-08-24 15:53:00,
2013-08-24 11:54:00,70.0,50.0,30.33,ENE,75,6.0,13.0,49,0.00,,,0.00,WeatherCatV1.21B27,2013-08-24 15:54:00,
2013-08-24 11:58:00,70.0,48.8,30.33,NNW,340,9.0,13.0,47,0.00,,,0.00,WeatherCatV1.21B27,2013-08-24 15:58:00,
2013-08-24 11:59:00,70.0,48.3,30.33,WNW,289,10.0,15.0,46,0.00,,,0.00,WeatherCatV1.21B27,2013-08-24 15:59:00,
2013-08-24 12:03:00,70.1,51.1,30.33,WSW,246,7.0,9.0,51,0.00,,,0.00,WeatherCatV1.21B27,2013-08-24 16:03:00,
2013-08-24 12:04:00,70.1,51.1,30.33,ENE,61,3.0,9.0,51,0.00,,,0.00,WeatherCatV1.21B27,2013-08-24 16:04:00,
2013-08-24 12:09:00,70.3,50.8,30.33,NNW,346,3.0,6.0,50,0.00,,,0.00,WeatherCatV1.21B27,2013-08-24 16:09:00,
2013-08-24 12:10:00,70.3,51.3,30.33,WNW,302,6.0,9.0,51,0.00,,,0.00,WeatherCatV1.21B27,2013-08-24 16:10:00,
2013-08-24 12:14:00,70.7,50.6,30.33,NNW,339,6.0,10.0,49,0.00,,,0.00,WeatherCatV1.21B27,2013-08-24 16:14:00,
2013-08-24 12:15:00,70.7,50.6,30.33,WNW,297,8.0,13.0,49,0.00,,,0.00,WeatherCatV1.21B27,2013-08-24 16:15:00,
2013-08-24 12:19:00,70.2,50.7,30.33,NNE,16,5.0,11.0,50,0.00,,,0.00,WeatherCatV1.21B27,2013-08-24 16:19:00,
2013-08-24 12:20:00,70.2,51.2,30.33,West,277,3.0,9.0,51,0.00,,,0.00,WeatherCatV1.21B27,2013-08-24 16:20:00,
2013-08-24 12:24:00,70.4,51.4,30.33,WNW,289,3.0,9.0,51,0.00,,,0.00,WeatherCatV1.21B27,2013-08-24 16:24:00,
2013-08-24 12:25:00,70.4,50.9,30.33,West,271,5.0,14.0,50,0.00,,,0.00,WeatherCatV1.21B27,2013-08-24 16:25:00,
2013-08-24 12:29:00,70.3,47.9,30.33,NNE,30,8.0,8.0,45,0.00,,,0.00,WeatherCatV1.21B27,2013-08-24 16:29:00,
2013-08-24 12:30:00,70.4,48.0,30.33,NE,36,9.0,12.0,45,0.00,,,0.00,WeatherCatV1.21B27,2013-08-24 16:30:00,
2013-08-24 12:34:00,70.7,47.7,30.33,WNW,288,3.0,11.0,44,0.00,,,0.00,WeatherCatV1.21B27,2013-08-24 16:34:00,
2013-08-24 12:35:00,70.7,47.7,30.33,NE,45,8.0,11.0,44,0.00,,,0.00,WeatherCatV1.21B27,2013-08-24 16:35:00,
2013-08-24 12:36:00,70.7,47.7,30.33,WNW,287,1.0,9.0,44,0.00,,,0.00,WeatherCatV1.21B27,2013-08-24 16:36:00,
2013-08-24 12:39:00,70.8,47.8,30.33,WNW,298,2.0,14.0,44,0.00,,,0.00,WeatherCatV1.21B27,2013-08-24 16:39:00,
2013-08-24 12:40:00,70.8,49.0,30.33,WNW,293,7.0,10.0,46,0.00,,,0.00,WeatherCatV1.21B27,2013-08-24 16:40:00,
2013-08-24 12:41:00,70.8,49.6,30.33,WNW,285,7.0,10.0,47,0.00,,,0.00,WeatherCatV1.21B27,2013-08-24 16:41:00,
2013-08-24 12:44:00,70.4,49.8,30.33,NE,53,4.0,7.0,48,0.00,,,0.00,WeatherCatV1.21B27,2013-08-24 16:44:00,
2013-08-24 12:45:00,70.4,49.8,30.33,NNE,15,7.0,7.0,48,0.00,,,0.00,WeatherCatV1.21B27,2013-08-24 16:45:00,
2013-08-24 12:46:00,70.4,50.3,30.33,WNW,293,9.0,12.0,49,0.00,,,0.00,WeatherCatV1.21B27,2013-08-24 16:46:00,
2013-08-24 12:49:00,70.7,51.7,30.33,NNW,331,0.0,5.0,51,0.00,,,0.00,WeatherCatV1.21B27,2013-08-24 16:49:00,
2013-08-24 12:50:00,70.9,51.9,30.33,East,95,4.0,5.0,51,0.00,,,0.00,WeatherCatV1.21B27,2013-08-24 16:50:00,
2013-08-24 12:51:00,71.1,49.8,30.33,NNE,24,2.0,6.0,47,0.00,,,0.00,WeatherCatV1.21B27,2013-08-24 16:51:00,
2013-08-24 12:54:00,71.4,49.5,30.33,NNW,329,9.0,11.0,46,0.00,,,0.00,WeatherCatV1.21B27,2013-08-24 16:54:00,
2013-08-24 12:55:00,71.3,49.4,30.33,North,351,10.0,11.0,46,0.00,,,0.00,WeatherCatV1.21B27,2013-08-24 16:55:00,
2013-08-24 12:56:00,71.2,49.3,30.33,NNW,342,7.0,11.0,46,0.00,,,0.00,WeatherCatV1.21B27,2013-08-24 16:56:00,
2013-08-24 13:00:00,71.1,49.8,30.33,NNW,335,8.0,13.0,47,0.00,,,0.00,WeatherCatV1.21B27,2013-08-24 17:00:00,
2013-08-24 13:01:00,71.1,51.0,30.33,NW,307,8.0,9.0,49,0.00,,,0.00,WeatherCatV1.21B27,2013-08-24 17:01:00,
2013-08-24 13:05:00,70.9,50.8,30.33,NNW,340,4.0,6.0,49,0.00,,,0.00,WeatherCatV1.21B27,2013-08-24 17:05:00,
2013-08-24 13:06:00,70.9,50.2,30.33,NE,46,13.0,13.0,48,0.00,,,0.00,WeatherCatV1.21B27,2013-08-24 17:06:00,
2013-08-24 13:11:00,70.9,50.2,30.34,NW,321,3.0,10.0,48,0.00,,,0.00,WeatherCatV1.21B27,2013-08-24 17:11:00,
2013-08-24 13:16:00,71.2,49.9,30.34,West,260,3.0,13.0,47,0.00,,,0.00,WeatherCatV1.21B27,2013-08-24 17:16:00,
2013-08-24 13:17:00,71.2,51.0,30.34,NW,310,6.0,6.0,49,0.00,,,0.00,WeatherCatV1.21B27,2013-08-24 17:17:00,
2013-08-24 13:21:00,71.4,50.7,30.34,NNE,15,6.0,7.0,48,0.00,,,0.00,WeatherCatV1.21B27,2013-08-24 17:21:00,
2013-08-24 13:22:00,71.4,50.7,30.34,NW,308,3.0,9.0,48,0.00,,,0.00,WeatherCatV1.21B27,2013-08-24 17:22:00,
2013-08-24 13:26:00,71.3,50.0,30.34,NW,325,6.0,10.0,47,0.00,,,0.00,WeatherCatV1.21B27,2013-08-24 17:26:00,
2013-08-24 13:27:00,71.3,50.0,30.34,WNW,297,3.0,10.0,47,0.00,,,0.00,WeatherCatV1.21B27,2013-08-24 17:27:00,
2013-08-24 13:31:00,71.1,50.4,30.34,NW,311,4.0,9.0,48,0.00,,,0.00,WeatherCatV1.21B27,2013-08-24 17:31:00,
2013-08-24 13:32:00,71.1,50.4,30.34,NNW,340,2.0,6.0,48,0.00,,,0.00,WeatherCatV1.21B27,2013-08-24 17:32:00,
2013-08-24 13:36:00,71.3,50.6,30.34,North,351,7.0,9.0,48,0.00,,,0.00,WeatherCatV1.21B27,2013-08-24 17:36:00,
2013-08-24 13:37:00,71.3,50.6,30.34,NW,319,4.0,9.0,48,0.00,,,0.00,WeatherCatV1.21B27,2013-08-24 17:37:00,
2013-08-24 13:42:00,71.5,49.6,30.34,WNW,301,4.0,10.0,46,0.00,,,0.00,WeatherCatV1.21B27,2013-08-24 17:42:00,
2013-08-24 13:47:00,71.0,49.7,30.34,NNE,19,5.0,8.0,47,0.00,,,0.00,WeatherCatV1.21B27,2013-08-24 17:47:00,
2013-08-24 13:48:00,71.1,50.4,30.34,NW,323,5.0,8.0,48,0.00,,,0.00,WeatherCatV1.21B27,2013-08-24 17:48:00,
2013-08-24 13:52:00,70.9,50.8,30.34,NNW,334,7.0,8.0,49,0.00,,,0.00,WeatherCatV1.21B27,2013-08-24 17:52:00,
2013-08-24 13:53:00,70.9,50.8,30.34,NW,325,3.0,8.0,49,0.00,,,0.00,WeatherCatV1.21B27,2013-08-24 17:53:00,
2013-08-24 13:57:00,70.5,51.0,30.34,WNW,302,3.0,8.0,50,0.00,,,0.00,WeatherCatV1.21B27,2013-08-24 17:57:00,
2013-08-24 13:58:00,70.5,51.0,30.34,NW,304,4.0,8.0,50,0.00,,,0.00,WeatherCatV1.21B27,2013-08-24 17:58:00,
2013-08-24 14:02:00,70.7,50.0,30.34,ENE,61,2.0,10.0,48,0.00,,,0.00,WeatherCatV1.21B27,2013-08-24 18:02:00,
2013-08-24 14:03:00,70.7,51.1,30.34,NW,308,6.0,6.0,50,0.00,,,0.00,WeatherCatV1.21B27,2013-08-24 18:03:00,
2013-08-24 14:04:00,70.8,51.8,30.34,NE,44,9.0,9.0,51,0.00,,,0.00,WeatherCatV1.21B27,2013-08-24 18:04:00,
2013-08-24 14:07:00,71.0,52.0,30.33,NNE,24,6.0,7.0,51,0.00,,,0.00,WeatherCatV1.21B27,2013-08-24 18:07:00,
2013-08-24 14:08:00,71.1,52.0,30.33,West,276,5.0,7.0,51,0.00,,,0.00,WeatherCatV1.21B27,2013-08-24 18:08:00,
2013-08-24 14:09:00,71.0,51.4,30.33,NW,310,5.0,7.0,50,0.00,,,0.00,WeatherCatV1.21B27,2013-08-24 18:09:00,
2013-08-24 14:13:00,71.1,52.0,30.33,NNW,330,2.0,9.0,51,0.00,,,0.00,WeatherCatV1.21B27,2013-08-24 18:13:00,
2013-08-24 14:14:00,71.1,51.5,30.33,WNW,288,2.0,7.0,50,0.00,,,0.00,WeatherCatV1.21B27,2013-08-24 18:14:00,
2013-08-24 14:18:00,71.2,51.6,30.33,NE,48,6.0,11.0,50,0.00,,,0.00,WeatherCatV1.21B27,2013-08-24 18:18:00,
2013-08-24 14:19:00,71.2,51.0,30.33,WNW,300,0.0,11.0,49,0.00,,,0.00,WeatherCatV1.21B27,2013-08-24 18:19:00,
2013-08-24 14:23:00,71.4,51.8,30.33,WNW,292,6.0,12.0,50,0.00,,,0.00,WeatherCatV1.21B27,2013-08-24 18:23:00,
2013-08-24 14:24:00,71.3,51.1,30.33,NW,324,8.0,10.0,49,0.00,,,0.00,WeatherCatV1.21B27,2013-08-24 18:24:00,
2013-08-24 14:28:00,71.0,50.9,30.33,NE,54,2.0,9.0,49,0.00,,,0.00,WeatherCatV1.21B27,2013-08-24 18:28:00,
2013-08-24 14:29:00,71.2,51.0,30.33,West,277,2.0,6.0,49,0.00,,,0.00,WeatherCatV1.21B27,2013-08-24 18:29:00,
2013-08-24 14:33:00,71.5,50.8,30.33,WNW,294,1.0,8.0,48,0.00,,,0.00,WeatherCatV1.21B27,2013-08-24 18:33:00,
2013-08-24 14:34:00,71.6,51.4,30.33,NNW,329,3.0,6.0,49,0.00,,,0.00,WeatherCatV1.21B27,2013-08-24 18:34:00,
2013-08-24 14:35:00,71.6,51.4,30.33,SSW,212,0.0,6.0,49,0.00,,,0.00,WeatherCatV1.21B27,2013-08-24 18:35:00,
2013-08-24 14:38:00,72.1,50.7,30.33,WNW,290,1.0,6.0,47,0.00,,,0.00,WeatherCatV1.21B27,2013-08-24 18:38:00,
2013-08-24 14:39:00,72.2,49.7,30.33,NNW,336,2.0,6.0,45,0.00,,,0.00,WeatherCatV1.21B27,2013-08-24 18:39:00,
2013-08-24 14:40:00,72.2,49.1,30.33,WNW,295,9.0,10.0,44,0.00,,,0.00,WeatherCatV1.21B27,2013-08-24 18:40:00,
2013-08-24 14:43:00,71.6,48.5,30.33,NW,307,1.0,9.0,44,0.00,,,0.00,WeatherCatV1.21B27,2013-08-24 18:43:00,
2013-08-24 14:44:00,71.6,49.1,30.33,WSW,252,3.0,9.0,45,0.00,,,0.00,WeatherCatV1.21B27,2013-08-24 18:44:00,
2013-08-24 14:46:00,71.4,49.5,30.33,West,280,2.0,8.0,46,0.00,,,0.00,WeatherCatV1.21B27,2013-08-24 18:46:00,
2013-08-24 14:48:00,71.5,50.2,30.33,NW,310,5.0,7.0,47,0.00,,,0.00,WeatherCatV1.21B27,2013-08-24 18:48:00,
2013-08-24 14:49:00,71.5,49.6,30.33,WNW,286,3.0,9.0,46,0.00,,,0.00,WeatherCatV1.21B27,2013-08-24 18:49:00,
2013-08-24 14:50:00,71.4,49.5,30.33,NW,306,2.0,9.0,46,0.00,,,0.00,WeatherCatV1.21B27,2013-08-24 18:50:00,
2013-08-24 14:51:00,71.5,50.2,30.33,West,265,7.0,7.0,47,0.00,,,0.00,WeatherCatV1.21B27,2013-08-24 18:51:00,
2013-08-24 14:53:00,71.4,47.1,30.33,ENE,60,4.0,11.0,42,0.00,,,0.00,WeatherCatV1.21B27,2013-08-24 18:53:00,
2013-08-24 14:54:00,71.4,48.3,30.33,NW,306,1.0,11.0,44,0.00,,,0.00,WeatherCatV1.21B27,2013-08-24 18:54:00,
2013-08-24 14:55:00,71.4,49.5,30.33,NW,324,1.0,4.0,46,0.00,,,0.00,WeatherCatV1.21B27,2013-08-24 18:55:00,
2013-08-24 14:56:00,71.7,49.8,30.33,West,273,1.0,7.0,46,0.00,,,0.00,WeatherCatV1.21B27,2013-08-24 18:56:00,
2013-08-24 14:59:00,72.0,49.5,30.33,NW,313,0.0,4.0,45,0.00,,,0.00,WeatherCatV1.21B27,2013-08-24 18:59:00,
2013-08-24 15:00:00,72.2,50.2,30.33,NE,40,4.0,6.0,46,0.00,,,0.00,WeatherCatV1.21B27,2013-08-24 19:00:00,
2013-08-24 15:02:00,72.1,50.2,30.33,WNW,290,6.0,8.0,46,0.00,,,0.00,WeatherCatV1.21B27,2013-08-24 19:02:00,
2013-08-24 15:04:00,71.9,48.8,30.33,West,273,6.0,8.0,44,0.00,,,0.00,WeatherCatV1.21B27,2013-08-24 19:04:00,
2013-08-24 15:05:00,71.8,49.3,30.33,East,94,1.0,6.0,45,0.00,,,0.00,WeatherCatV1.21B27,2013-08-24 19:05:00,
2013-08-24 15:07:00,71.7,49.2,30.33,WNW,288,8.0,12.0,45,0.00,,,0.00,WeatherCatV1.21B27,2013-08-24 19:07:00,
2013-08-24 15:09:00,71.7,49.2,30.33,North,11,1.0,6.0,45,0.00,,,0.00,WeatherCatV1.21B27,2013-08-24 19:09:00,
2013-08-24 15:10:00,71.6,49.1,30.33,WNW,300,6.0,10.0,45,0.00,,,0.00,WeatherCatV1.21B27,2013-08-24 19:10:00,
2013-08-24 15:11:00,71.6,49.1,30.33,NW,319,7.0,10.0,45,0.00,,,0.00,WeatherCatV1.21B27,2013-08-24 19:11:00,
2013-08-24 15:12:00,71.6,49.1,30.33,NW,311,1.0,10.0,45,0.00,,,0.00,WeatherCatV1.21B27,2013-08-24 19:12:00,
2013-08-24 15:14:00,71.6,49.1,30.33,WNW,293,4.0,7.0,45,0.00,,,0.00,WeatherCatV1.21B27,2013-08-24 19:14:00,
2013-08-24 15:16:00,71.8,49.3,30.33,NNW,336,0.0,7.0,45,0.00,,,0.00,WeatherCatV1.21B27,2013-08-24 19:16:00,
2013-08-24 15:18:00,72.1,49.6,30.33,NNW,340,3.0,9.0,45,0.00,,,0.00,WeatherCatV1.21B27,2013-08-24 19:18:00,
2013-08-24 15:19:00,72.0,47.6,30.33,NNE,26,13.0,13.0,42,0.00,,,0.00,WeatherCatV1.21B27,2013-08-24 19:19:00,
2013-08-24 15:21:00,72.0,48.9,30.33,NW,311,2.0,13.0,44,0.00,,,0.00,WeatherCatV1.21B27,2013-08-24 19:21:00,
2013-08-24 15:23:00,72.2,48.5,30.33,North,0,1.0,5.0,43,0.00,,,0.00,WeatherCatV1.21B27,2013-08-24 19:23:00,
2013-08-24 15:24:00,72.2,49.1,30.33,NW,322,4.0,9.0,44,0.00,,,0.00,WeatherCatV1.21B27,2013-08-24 19:24:00,
2013-08-24 15:26:00,72.0,47.6,30.33,East,84,2.0,9.0,42,0.00,,,0.00,WeatherCatV1.21B27,2013-08-24 19:26:00,
2013-08-24 15:28:00,71.8,48.1,30.33,NNE,12,3.0,10.0,43,0.00,,,0.00,WeatherCatV1.21B27,2013-08-24 19:28:00,
2013-08-24 15:29:00,71.9,48.8,30.33,ENE,72,1.0,7.0,44,0.00,,,0.00,WeatherCatV1.21B27,2013-08-24 19:29:00,
2013-08-24 15:31:00,72.0,47.0,30.33,NE,56,4.0,9.0,41,0.00,,,0.00,WeatherCatV1.21B27,2013-08-24 19:31:00,
2013-08-24 15:33:00,71.8,46.8,30.34,WNW,299,5.0,9.0,41,0.00,,,0.00,WeatherCatV1.21B27,2013-08-24 19:33:00,
2013-08-24 15:35:00,71.6,47.3,30.34,WNW,290,5.0,13.0,42,0.00,,,0.00,WeatherCatV1.21B27,2013-08-24 19:35:00,
2013-08-24 15:36:00,71.6,47.3,30.34,ENE,65,2.0,7.0,42,0.00,,,0.00,WeatherCatV1.21B27,2013-08-24 19:36:00,
2013-08-24 15:38:00,71.8,48.7,30.33,East,80,1.0,3.0,44,0.00,,,0.00,WeatherCatV1.21B27,2013-08-24 19:38:00,
2013-08-24 15:40:00,72.2,49.1,30.34,NNW,344,1.0,6.0,44,0.00,,,0.00,WeatherCatV1.21B27,2013-08-24 19:40:00,
2013-08-24 15:41:00,72.7,49.5,30.34,NNW,334,1.0,2.0,44,0.00,,,0.00,WeatherCatV1.21B27,2013-08-24 19:41:00,
2013-08-24 15:43:00,72.8,46.4,30.34,WNW,292,0.0,9.0,39,0.00,,,0.00,WeatherCatV1.21B27,2013-08-24 19:43:00,
2013-08-24 15:45:00,72.9,47.2,30.34,NW,304,2.0,5.0,40,0.00,,,0.00,WeatherCatV1.21B27,2013-08-24 19:45:00,
2013-08-24 15:46:00,72.8,47.1,30.34,NNE,26,0.0,4.0,40,0.00,,,0.00,WeatherCatV1.21B27,2013-08-24 19:46:00,
2013-08-24 15:48:00,72.6,46.9,30.34,WNW,285,2.0,7.0,40,0.00,,,0.00,WeatherCatV1.21B27,2013-08-24 19:48:00,
2013-08-24 15:50:00,72.5,46.1,30.34,West,270,0.0,7.0,39,0.00,,,0.00,WeatherCatV1.21B27,2013-08-24 19:50:00,
2013-08-24 15:51:00,72.4,45.3,30.34,NNE,12,2.0,6.0,38,0.00,,,0.00,WeatherCatV1.21B27,2013-08-24 19:51:00,
2013-08-24 15:52:00,72.4,46.0,30.34,WNW,284,6.0,8.0,39,0.00,,,0.00,WeatherCatV1.21B27,2013-08-24 19:52:00,
2013-08-24 15:53:00,72.4,46.0,30.34,WNW,297,1.0,8.0,39,0.00,,,0.00,WeatherCatV1.21B27,2013-08-24 19:53:00,
2013-08-24 15:55:00,72.5,46.8,30.34,NNE,14,3.0,3.0,40,0.00,,,0.00,WeatherCatV1.21B27,2013-08-24 19:55:00,
2013-08-24 15:56:00,72.5,46.8,30.34,North,355,2.0,7.0,40,0.00,,,0.00,WeatherCatV1.21B27,2013-08-24 19:56:00,
2013-08-24 15:58:00,72.5,46.1,30.34,WNW,302,1.0,7.0,39,0.00,,,0.00,WeatherCatV1.21B27,2013-08-24 19:58:00,
2013-08-24 16:00:00,72.4,46.0,30.34,WNW,292,2.0,7.0,39,0.00,,,0.00,WeatherCatV1.21B27,2013-08-24 20:00:00,
2013-08-24 16:01:00,72.4,46.7,30.34,West,280,2.0,7.0,40,0.00,,,0.00,WeatherCatV1.21B27,2013-08-24 20:01:00,
2013-08-24 16:03:00,72.3,45.3,30.34,ENE,59,5.0,8.0,38,0.00,,,0.00,WeatherCatV1.21B27,2013-08-24 20:03:00,
2013-08-24 16:04:00,72.3,45.3,30.34,SW,236,4.0,8.0,38,0.00,,,0.00,WeatherCatV1.21B27,2013-08-24 20:04:00,
2013-08-24 16:05:00,72.2,45.8,30.34,NW,323,4.0,7.0,39,0.00,,,0.00,WeatherCatV1.21B27,2013-08-24 20:05:00,
2013-08-24 16:06:00,72.3,46.6,30.34,NNW,338,1.0,4.0,40,0.00,,,0.00,WeatherCatV1.21B27,2013-08-24 20:06:00,
2013-08-24 16:08:00,72.2,46.5,30.34,NNW,340,5.0,8.0,40,0.00,,,0.00,WeatherCatV1.21B27,2013-08-24 20:08:00,
2013-08-24 16:09:00,72.2,46.5,30.34,NNE,20,2.0,8.0,40,0.00,,,0.00,WeatherCatV1.21B27,2013-08-24 20:09:00,
2013-08-24 16:11:00,72.2,47.2,30.34,NE,49,4.0,4.0,41,0.00,,,0.00,WeatherCatV1.21B27,2013-08-24 20:11:00,
2013-08-24 16:12:00,72.1,45.8,30.34,NNW,341,4.0,11.0,39,0.00,,,0.00,WeatherCatV1.21B27,2013-08-24 20:12:00,
2013-08-24 16:13:00,71.9,46.2,30.34,NE,40,3.0,11.0,40,0.00,,,0.00,WeatherCatV1.21B27,2013-08-24 20:13:00,
2013-08-24 16:14:00,71.8,45.5,30.34,NNE,27,3.0,8.0,39,0.00,,,0.00,WeatherCatV1.21B27,2013-08-24 20:14:00,
2013-08-24 16:16:00,71.7,46.7,30.34,WNW,285,4.0,10.0,41,0.00,,,0.00,WeatherCatV1.21B27,2013-08-24 20:16:00,
2013-08-24 16:17:00,71.7,46.7,30.34,NW,325,0.0,7.0,41,0.00,,,0.00,WeatherCatV1.21B27,2013-08-24 20:17:00,
2013-08-24 16:19:00,71.8,46.8,30.34,NW,325,2.0,5.0,41,0.00,,,0.00,WeatherCatV1.21B27,2013-08-24 20:19:00,
2013-08-24 16:21:00,71.8,46.2,30.34,NNW,331,5.0,11.0,40,0.00,,,0.00,WeatherCatV1.21B27,2013-08-24 20:21:00,
2013-08-24 16:22:00,71.8,46.2,30.34,WNW,286,1.0,11.0,40,0.00,,,0.00,WeatherCatV1.21B27,2013-08-24 20:22:00,
2013-08-24 16:24:00,70.4,47.4,30.34,ESE,122,9.0,9.0,44,0.00,,,0.00,WeatherCatV1.21B27,2013-08-24 20:24:00,
2013-08-24 16:26:00,70.3,46.7,30.34,ENE,73,1.0,10.0,43,0.00,,,0.00,WeatherCatV1.21B27,2013-08-24 20:26:00,
2013-08-24 16:27:00,70.2,46.6,30.34,SE,140,1.0,11.0,43,0.00,,,0.00,WeatherCatV1.21B27,2013-08-24 20:27:00,
2013-08-24 16:29:00,70.2,46.6,30.34,ESE,111,4.0,7.0,43,0.00,,,0.00,WeatherCatV1.21B27,2013-08-24 20:29:00,
2013-08-24 16:31:00,70.3,47.3,30.34,East,100,4.0,5.0,44,0.00,,,0.00,WeatherCatV1.21B27,2013-08-24 20:31:00,
2013-08-24 16:32:00,70.4,48.0,30.34,ESE,111,0.0,7.0,45,0.00,,,0.00,WeatherCatV1.21B27,2013-08-24 20:32:00,
2013-08-24 16:34:00,70.7,48.9,30.34,East,84,3.0,6.0,46,0.00,,,0.00,WeatherCatV1.21B27,2013-08-24 20:34:00,
2013-08-24 16:36:00,70.8,47.8,30.34,ESE,121,1.0,8.0,44,0.00,,,0.00,WeatherCatV1.21B27,2013-08-24 20:36:00,
2013-08-24 16:37:00,70.8,47.8,30.34,SE,131,5.0,8.0,44,0.00,,,0.00,WeatherCatV1.21B27,2013-08-24 20:37:00,
2013-08-24 16:39:00,70.7,47.7,30.34,ESE,123,2.0,5.0,44,0.00,,,0.00,WeatherCatV1.21B27,2013-08-24 20:39:00,
2013-08-24 16:40:00,70.7,47.7,30.34,ENE,74,5.0,6.0,44,0.00,,,0.00,WeatherCatV1.21B27,2013-08-24 20:40:00,
2013-08-24 16:41:00,70.7,47.7,30.34,SE,130,0.0,1.0,44,0.00,,,0.00,WeatherCatV1.21B27,2013-08-24 20:41:00,
2013-08-24 16:42:00,70.7,47.7,30.34,ESE,119,2.0,6.0,44,0.00,,,0.00,WeatherCatV1.21B27,2013-08-24 20:42:00,
2013-08-24 16:44:00,70.8,48.4,30.34,SE,140,2.0,8.0,45,0.00,,,0.00,WeatherCatV1.21B27,2013-08-24 20:44:00,
2013-08-24 16:45:00,70.8,48.4,30.34,ESE,118,4.0,7.0,45,0.00,,,0.00,WeatherCatV1.21B27,2013-08-24 20:45:00,
2013-08-24 16:47:00,70.6,47.0,30.34,SE,132,7.0,11.0,43,0.00,,,0.00,WeatherCatV1.21B27,2013-08-24 20:47:00,
2013-08-24 16:48:00,70.6,46.4,30.34,ESE,117,6.0,11.0,42,0.00,,,0.00,WeatherCatV1.21B27,2013-08-24 20:48:00,
2013-08-24 16:49:00,70.3,46.7,30.34,ESE,119,4.0,8.0,43,0.00,,,0.00,WeatherCatV1.21B27,2013-08-24 20:49:00,
2013-08-24 16:50:00,70.3,46.7,30.34,East,82,2.0,8.0,43,0.00,,,0.00,WeatherCatV1.21B27,2013-08-24 20:50:00,
2013-08-24 16:52:00,70.4,48.6,30.34,ESE,105,9.0,9.0,46,0.00,,,0.00,WeatherCatV1.21B27,2013-08-24 20:52:00,
2013-08-24 16:53:00,70.4,45.6,30.34,ENE,73,5.0,9.0,41,0.00,,,0.00,WeatherCatV1.21B27,2013-08-24 20:53:00,
2013-08-24 16:54:00,70.3,46.1,30.34,SE,146,5.0,5.0,42,0.00,,,0.00,WeatherCatV1.21B27,2013-08-24 20:54:00,
2013-08-24 16:55:00,70.3,46.7,30.34,ESE,116,0.0,5.0,43,0.00,,,0.00,WeatherCatV1.21B27,2013-08-24 20:55:00,
2013-08-24 16:57:00,70.4,47.4,30.34,East,93,2.0,7.0,44,0.00,,,0.00,WeatherCatV1.21B27,2013-08-24 20:57:00,
2013-08-24 16:58:00,70.4,47.4,30.34,SE,134,2.0,7.0,44,0.00,,,0.00,WeatherCatV1.21B27,2013-08-24 20:58:00,
2013-08-24 16:59:00,70.5,47.5,30.34,SE,136,5.0,5.0,44,0.00,,,0.00,WeatherCatV1.21B27,2013-08-24 20:59:00,
2013-08-24 17:00:00,70.5,46.9,30.34,East,90,0.0,6.0,43,0.00,,,0.00,WeatherCatV1.21B27,2013-08-24 21:00:00,
2013-08-24 17:02:00,70.6,47.6,30.34,East,101,0.0,4.0,44,0.00,,,0.00,WeatherCatV1.21B27,2013-08-24 21:02:00,
2013-08-24 17:03:00,70.7,47.7,30.34,East,95,5.0,5.0,44,0.00,,,0.00,WeatherCatV1.21B27,2013-08-24 21:03:00,
2013-08-24 17:05:00,70.8,49.0,30.34,East,92,0.0,8.0,46,0.00,,,0.00,WeatherCatV1.21B27,2013-08-24 21:05:00,
2013-08-24 17:07:00,70.8,47.8,30.33,ENE,70,6.0,6.0,44,0.00,,,0.00,WeatherCatV1.21B27,2013-08-24 21:07:00,
2013-08-24 17:08:00,70.8,47.8,30.33,NE,46,3.0,6.0,44,0.00,,,0.00,WeatherCatV1.21B27,2013-08-24 21:08:00,
2013-08-24 17:10:00,70.7,47.7,30.33,ESE,103,7.0,7.0,44,0.00,,,0.00,WeatherCatV1.21B27,2013-08-24 21:10:00,
2013-08-24 17:13:00,70.4,44.9,30.33,ESE,105,6.0,7.0,40,0.00,,,0.00,WeatherCatV1.21B27,2013-08-24 21:13:00,
2013-08-24 17:15:00,70.3,46.1,30.33,ESE,121,4.0,7.0,42,0.00,,,0.00,WeatherCatV1.21B27,2013-08-24 21:15:00,
2013-08-24 17:18:00,70.2,47.2,30.33,ESE,123,2.0,4.0,44,0.00,,,0.00,WeatherCatV1.21B27,2013-08-24 21:18:00,
2013-08-24 17:19:00,70.2,47.2,30.33,East,99,6.0,6.0,44,0.00,,,0.00,WeatherCatV1.21B27,2013-08-24 21:19:00,
2013-08-24 17:20:00,70.2,46.6,30.33,SE,141,4.0,6.0,43,0.00,,,0.00,WeatherCatV1.21B27,2013-08-24 21:20:00,
2013-08-24 17:23:00,70.0,47.1,30.33,East,86,5.0,7.0,44,0.00,,,0.00,WeatherCatV1.21B27,2013-08-24 21:23:00,
2013-08-24 17:24:00,70.0,47.7,30.33,ESE,103,1.0,5.0,45,0.00,,,0.00,WeatherCatV1.21B27,2013-08-24 21:24:00,
2013-08-24 17:25:00,70.0,47.7,30.33,ESE,119,0.0,6.0,45,0.00,,,0.00,WeatherCatV1.21B27,2013-08-24 21:25:00,
2013-08-24 17:28:00,70.0,47.7,30.33,South,174,5.0,7.0,45,0.00,,,0.00,WeatherCatV1.21B27,2013-08-24 21:28:00,
2013-08-24 17:29:00,69.9,47.0,30.33,South,169,1.0,7.0,44,0.00,,,0.00,WeatherCatV1.21B27,2013-08-24 21:29:00,
2013-08-24 17:30:00,69.8,46.9,30.33,SE,139,0.0,6.0,44,0.00,,,0.00,WeatherCatV1.21B27,2013-08-24 21:30:00,
2013-08-24 17:31:00,69.8,46.9,30.33,SE,139,1.0,6.0,44,0.00,,,0.00,WeatherCatV1.21B27,2013-08-24 21:31:00,
2013-08-24 17:33:00,69.8,48.1,30.33,ENE,69,2.0,3.0,46,0.00,,,0.00,WeatherCatV1.21B27,2013-08-24 21:33:00,
2013-08-24 17:34:00,69.8,48.7,30.33,East,84,0.0,4.0,47,0.00,,,0.00,WeatherCatV1.21B27,2013-08-24 21:34:00,
2013-08-24 17:35:00,69.9,48.7,30.33,ENE,73,5.0,5.0,47,0.00,,,0.00,WeatherCatV1.21B27,2013-08-24 21:35:00,
2013-08-24 17:36:00,69.9,48.7,30.33,ENE,76,4.0,5.0,47,0.00,,,0.00,WeatherCatV1.21B27,2013-08-24 21:36:00,
2013-08-24 17:38:00,69.9,47.6,30.33,SE,146,4.0,7.0,45,0.00,,,0.00,WeatherCatV1.21B27,2013-08-24 21:38:00,
2013-08-24 17:39:00,69.9,47.6,30.33,ESE,102,8.0,8.0,45,0.00,,,0.00,WeatherCatV1.21B27,2013-08-24 21:39:00,
2013-08-24 17:41:00,69.8,47.5,30.33,NE,42,0.0,8.0,45,0.00,,,0.00,WeatherCatV1.21B27,2013-08-24 21:41:00,
2013-08-24 17:43:00,69.8,47.5,30.33,NE,48,4.0,8.0,45,0.00,,,0.00,WeatherCatV1.21B27,2013-08-24 21:43:00,
2013-08-24 17:44:00,69.8,46.9,30.33,ENE,65,6.0,8.0,44,0.00,,,0.00,WeatherCatV1.21B27,2013-08-24 21:44:00,
2013-08-24 17:46:00,69.9,47.0,30.33,North,5,0.0,2.0,44,0.00,,,0.00,WeatherCatV1.21B27,2013-08-24 21:46:00,
2013-08-24 17:48:00,70.0,47.1,30.33,East,83,3.0,5.0,44,0.00,,,0.00,WeatherCatV1.21B27,2013-08-24 21:48:00,
2013-08-24 17:49:00,70.0,45.8,30.33,East,96,2.0,5.0,42,0.00,,,0.00,WeatherCatV1.21B27,2013-08-24 21:49:00,
2013-08-24 17:51:00,69.8,47.5,30.33,East,84,1.0,7.0,45,0.00,,,0.00,WeatherCatV1.21B27,2013-08-24 21:51:00,
2013-08-24 17:52:00,69.7,45.6,30.33,East,101,4.0,4.0,42,0.00,,,0.00,WeatherCatV1.21B27,2013-08-24 21:52:00,
2013-08-24 17:53:00,69.5,45.4,30.33,ESE,120,5.0,5.0,42,0.00,,,0.00,WeatherCatV1.21B27,2013-08-24 21:53:00,
2013-08-24 17:54:00,69.5,46.0,30.33,SE,126,0.0,5.0,43,0.00,,,0.00,WeatherCatV1.21B27,2013-08-24 21:54:00,
2013-08-24 17:55:00,69.4,45.9,30.33,SE,126,1.0,5.0,43,0.00,,,0.00,WeatherCatV1.21B27,2013-08-24 21:55:00,
2013-08-24 17:56:00,69.4,45.9,30.33,ESE,111,0.0,7.0,43,0.00,,,0.00,WeatherCatV1.21B27,2013-08-24 21:56:00,
2013-08-24 17:57:00,69.3,46.4,30.33,ENE,57,3.0,5.0,44,0.00,,,0.00,WeatherCatV1.21B27,2013-08-24 21:57:00,
2013-08-24 17:58:00,69.2,45.7,30.33,SE,136,1.0,6.0,43,0.00,,,0.00,WeatherCatV1.21B27,2013-08-24 21:58:00,
2013-08-24 17:59:00,69.2,45.7,30.33,East,93,4.0,6.0,43,0.00,,,0.00,WeatherCatV1.21B27,2013-08-24 21:59:00,
2013-08-24 18:00:00,69.1,45.7,30.33,East,94,6.0,7.0,43,0.00,,,0.00,WeatherCatV1.21B27,2013-08-24 22:00:00,
2013-08-24 18:01:00,69.0,46.2,30.33,East,87,3.0,8.0,44,0.00,,,0.00,WeatherCatV1.21B27,2013-08-24 22:01:00,
2013-08-24 18:02:00,68.9,46.1,30.33,East,94,2.0,5.0,44,0.00,,,0.00,WeatherCatV1.21B27,2013-08-24 22:02:00,
2013-08-24 18:04:00,68.8,46.6,30.33,East,93,0.0,2.0,45,0.00,,,0.00,WeatherCatV1.21B27,2013-08-24 22:04:00,
2013-08-24 18:05:00,68.7,47.7,30.33,East,93,0.0,2.0,47,0.00,,,0.00,WeatherCatV1.21B27,2013-08-24 22:05:00,
2013-08-24 18:06:00,68.6,46.4,30.33,ESE,112,1.0,4.0,45,0.00,,,0.00,WeatherCatV1.21B27,2013-08-24 22:06:00,
2013-08-24 18:07:00,68.6,46.4,30.33,ESE,102,2.0,5.0,45,0.00,,,0.00,WeatherCatV1.21B27,2013-08-24 22:07:00,
2013-08-24 18:09:00,68.5,46.9,30.33,East,96,1.0,3.0,46,0.00,,,0.00,WeatherCatV1.21B27,2013-08-24 22:09:00,
2013-08-24 18:10:00,68.4,46.8,30.33,SE,144,0.0,1.0,46,0.00,,,0.00,WeatherCatV1.21B27,2013-08-24 22:10:00,
2013-08-24 18:11:00,68.3,46.1,30.33,SE,145,1.0,2.0,45,0.00,,,0.00,WeatherCatV1.21B27,2013-08-24 22:11:00,
2013-08-24 18:12:00,68.1,46.0,30.33,ESE,118,4.0,6.0,45,0.00,,,0.00,WeatherCatV1.21B27,2013-08-24 22:12:00,
2013-08-24 18:14:00,67.9,45.8,30.33,ESE,110,1.0,7.0,45,0.00,,,0.00,WeatherCatV1.21B27,2013-08-24 22:14:00,
2013-08-24 18:15:00,67.8,45.1,30.33,East,96,4.0,7.0,44,0.00,,,0.00,WeatherCatV1.21B27,2013-08-24 22:15:00,
2013-08-24 18:16:00,67.7,45.0,30.33,East,96,2.0,5.0,44,0.00,,,0.00,WeatherCatV1.21B27,2013-08-24 22:16:00,
2013-08-24 18:17:00,67.6,44.9,30.33,East,101,0.0,2.0,44,0.00,,,0.00,WeatherCatV1.21B27,2013-08-24 22:17:00,
2013-08-24 18:20:00,67.5,47.1,30.33,ESE,105,0.0,1.0,48,0.00,,,0.00,WeatherCatV1.21B27,2013-08-24 22:20:00,
2013-08-24 18:21:00,67.3,46.9,30.33,ESE,104,1.0,5.0,48,0.00,,,0.00,WeatherCatV1.21B27,2013-08-24 22:21:00,
2013-08-24 18:23:00,67.2,46.3,30.33,ESE,106,0.0,5.0,47,0.00,,,0.00,WeatherCatV1.21B27,2013-08-24 22:23:00,
2013-08-24 18:25:00,67.0,46.7,30.33,SE,127,2.0,4.0,48,0.00,,,0.00,WeatherCatV1.21B27,2013-08-24 22:25:00,
2013-08-24 18:26:00,66.9,46.6,30.33,SE,131,0.0,4.0,48,0.00,,,0.00,WeatherCatV1.21B27,2013-08-24 22:26:00,
2013-08-24 18:28:00,66.8,46.5,30.33,SE,131,0.0,1.0,48,0.00,,,0.00,WeatherCatV1.21B27,2013-08-24 22:28:00,
2013-08-24 18:30:00,66.8,46.5,30.33,ESE,102,4.0,4.0,48,0.00,,,0.00,WeatherCatV1.21B27,2013-08-24 22:30:00,
2013-08-24 18:31:00,66.8,47.5,30.33,East,98,2.0,5.0,50,0.00,,,0.00,WeatherCatV1.21B27,2013-08-24 22:31:00,
2013-08-24 18:33:00,66.8,47.5,30.33,East,94,2.0,4.0,50,0.00,,,0.00,WeatherCatV1.21B27,2013-08-24 22:33:00,
2013-08-24 18:35:00,66.7,47.5,30.33,East,94,0.0,1.0,50,0.00,,,0.00,WeatherCatV1.21B27,2013-08-24 22:35:00,
2013-08-24 18:37:00,66.7,47.5,30.33,East,94,0.0,0.0,50,0.00,,,0.00,WeatherCatV1.21B27,2013-08-24 22:37:00,
2013-08-24 18:38:00,66.7,48.0,30.33,East,94,0.0,1.0,51,0.00,,,0.00,WeatherCatV1.21B27,2013-08-24 22:38:00,
2013-08-24 18:40:00,66.5,47.3,30.33,East,94,0.0,1.0,50,0.00,,,0.00,WeatherCatV1.21B27,2013-08-24 22:40:00,
2013-08-24 18:42:00,66.4,47.7,30.33,East,94,0.0,2.0,51,0.00,,,0.00,WeatherCatV1.21B27,2013-08-24 22:42:00,
2013-08-24 18:43:00,66.3,47.6,30.33,East,94,1.0,2.0,51,0.00,,,0.00,WeatherCatV1.21B27,2013-08-24 22:43:00,
2013-08-24 18:45:00,66.2,47.5,30.33,East,94,1.0,2.0,51,0.00,,,0.00,WeatherCatV1.21B27,2013-08-24 22:45:00,
2013-08-24 18:46:00,66.2,47.5,30.33,East,94,0.0,2.0,51,0.00,,,0.00,WeatherCatV1.21B27,2013-08-24 22:46:00,
2013-08-24 18:47:00,66.1,48.0,30.33,East,94,0.0,2.0,52,0.00,,,0.00,WeatherCatV1.21B27,2013-08-24 22:47:00,
2013-08-24 18:48:00,66.1,48.0,30.33,East,93,0.0,2.0,52,0.00,,,0.00,WeatherCatV1.21B27,2013-08-24 22:48:00,
2013-08-24 18:51:00,65.9,48.3,30.33,East,93,0.0,0.0,53,0.00,,,0.00,WeatherCatV1.21B27,2013-08-24 22:51:00,
2013-08-24 18:52:00,65.8,48.7,30.33,East,93,0.0,1.0,54,0.00,,,0.00,WeatherCatV1.21B27,2013-08-24 22:52:00,
2013-08-24 18:53:00,65.8,48.7,30.33,East,93,0.0,0.0,54,0.00,,,0.00,WeatherCatV1.21B27,2013-08-24 22:53:00,
2013-08-24 18:56:00,65.6,49.5,30.33,East,93,0.0,0.0,56,0.00,,,0.00,WeatherCatV1.21B27,2013-08-24 22:56:00,
2013-08-24 18:57:00,65.4,49.3,30.33,East,93,0.0,0.0,56,0.00,,,0.00,WeatherCatV1.21B27,2013-08-24 22:57:00,
2013-08-24 18:58:00,65.4,49.3,30.33,East,93,0.0,0.0,56,0.00,,,0.00,WeatherCatV1.21B27,2013-08-24 22:58:00,
2013-08-24 19:01:00,65.2,49.6,30.33,East,93,0.0,0.0,57,0.00,,,0.00,WeatherCatV1.21B27,2013-08-24 23:01:00,
2013-08-24 19:03:00,65.0,49.9,30.33,East,93,0.0,0.0,58,0.00,,,0.00,WeatherCatV1.21B27,2013-08-24 23:03:00,
2013-08-24 19:06:00,64.8,49.7,30.33,East,93,0.0,0.0,58,0.00,,,0.00,WeatherCatV1.21B27,2013-08-24 23:06:00,
2013-08-24 19:07:00,64.7,50.0,30.33,East,93,0.0,0.0,59,0.00,,,0.00,WeatherCatV1.21B27,2013-08-24 23:07:00,
2013-08-24 19:08:00,64.7,49.6,30.33,East,93,0.0,0.0,58,0.00,,,0.00,WeatherCatV1.21B27,2013-08-24 23:08:00,
2013-08-24 19:11:00,64.4,50.2,30.33,East,93,0.0,0.0,60,0.00,,,0.00,WeatherCatV1.21B27,2013-08-24 23:11:00,
2013-08-24 19:12:00,64.4,50.2,30.33,East,93,0.0,0.0,60,0.00,,,0.00,WeatherCatV1.21B27,2013-08-24 23:12:00,
2013-08-24 19:13:00,64.3,50.1,30.33,East,93,0.0,0.0,60,0.00,,,0.00,WeatherCatV1.21B27,2013-08-24 23:13:00,
2013-08-24 19:14:00,64.3,50.6,30.33,East,93,0.0,0.0,61,0.00,,,0.00,WeatherCatV1.21B27,2013-08-24 23:14:00,
2013-08-24 19:16:00,64.1,50.4,30.33,East,93,0.0,0.0,61,0.00,,,0.00,WeatherCatV1.21B27,2013-08-24 23:16:00,
2013-08-24 19:17:00,64.1,50.4,30.33,East,93,0.0,0.0,61,0.00,,,0.00,WeatherCatV1.21B27,2013-08-24 23:17:00,
2013-08-24 19:18:00,64.0,50.7,30.33,East,93,0.0,0.0,62,0.00,,,0.00,WeatherCatV1.21B27,2013-08-24 23:18:00,
2013-08-24 19:19:00,63.8,51.0,30.33,East,93,0.0,0.0,63,0.00,,,0.00,WeatherCatV1.21B27,2013-08-24 23:19:00,
2013-08-24 19:22:00,63.5,51.1,30.33,East,93,0.0,0.0,64,0.00,,,0.00,WeatherCatV1.21B27,2013-08-24 23:22:00,
2013-08-24 19:23:00,63.3,51.3,30.33,East,93,0.0,0.0,65,0.00,,,0.00,WeatherCatV1.21B27,2013-08-24 23:23:00,
2013-08-24 19:25:00,63.1,51.1,30.33,East,93,0.0,0.0,65,0.00,,,0.00,WeatherCatV1.21B27,2013-08-24 23:25:00,
2013-08-24 19:27:00,62.8,50.4,30.33,East,93,0.0,0.0,64,0.00,,,0.00,WeatherCatV1.21B27,2013-08-24 23:27:00,
2013-08-24 19:28:00,62.7,49.9,30.33,East,93,0.0,0.0,63,0.00,,,0.00,WeatherCatV1.21B27,2013-08-24 23:28:00,
2013-08-24 19:30:00,62.6,50.7,30.34,East,93,0.0,0.0,65,0.00,,,0.00,WeatherCatV1.21B27,2013-08-24 23:30:00,
2013-08-24 19:32:00,62.4,50.5,30.34,East,93,0.0,0.0,65,0.00,,,0.00,WeatherCatV1.21B27,2013-08-24 23:32:00,
2013-08-24 19:33:00,62.3,50.4,30.34,East,93,0.0,0.0,65,0.00,,,0.00,WeatherCatV1.21B27,2013-08-24 23:33:00,
2013-08-24 19:35:00,62.1,50.2,30.34,East,93,0.0,0.0,65,0.00,,,0.00,WeatherCatV1.21B27,2013-08-24 23:35:00,
2013-08-24 19:37:00,62.0,50.5,30.34,East,93,0.0,0.0,66,0.00,,,0.00,WeatherCatV1.21B27,2013-08-24 23:37:00,
2013-08-24 19:38:00,61.9,50.4,30.34,East,93,0.0,0.0,66,0.00,,,0.00,WeatherCatV1.21B27,2013-08-24 23:38:00,
2013-08-24 19:40:00,61.7,50.2,30.34,East,93,0.0,0.0,66,0.00,,,0.00,WeatherCatV1.21B27,2013-08-24 23:40:00,
2013-08-24 19:42:00,61.6,50.1,30.34,East,93,0.0,0.0,66,0.00,,,0.00,WeatherCatV1.21B27,2013-08-24 23:42:00,
2013-08-24 19:43:00,61.5,50.4,30.34,East,93,0.0,0.0,67,0.00,,,0.00,WeatherCatV1.21B27,2013-08-24 23:43:00,
2013-08-24 19:44:00,61.5,50.8,30.34,East,93,0.0,0.0,68,0.00,,,0.00,WeatherCatV1.21B27,2013-08-24 23:44:00,
2013-08-24 19:45:00,61.3,49.8,30.34,East,93,0.0,0.0,66,0.00,,,0.00,WeatherCatV1.21B27,2013-08-24 23:45:00,
2013-08-24 19:47:00,61.2,49.8,30.34,East,93,0.0,0.0,66,0.00,,,0.00,WeatherCatV1.21B27,2013-08-24 23:47:00,
2013-08-24 19:49:00,61.1,50.1,30.34,East,93,0.0,0.0,67,0.00,,,0.00,WeatherCatV1.21B27,2013-08-24 23:49:00,
2013-08-24 19:50:00,60.9,49.9,30.35,East,93,0.0,0.0,67,0.00,,,0.00,WeatherCatV1.21B27,2013-08-24 23:50:00,
2013-08-24 19:52:00,60.8,49.8,30.35,East,93,0.0,0.0,67,0.00,,,0.00,WeatherCatV1.21B27,2013-08-24 23:52:00,
2013-08-24 19:53:00,60.8,49.8,30.35,East,93,0.0,0.0,67,0.00,,,0.00,WeatherCatV1.21B27,2013-08-24 23:53:00,
2013-08-24 19:54:00,60.7,50.5,30.35,East,93,0.0,0.0,69,0.00,,,0.00,WeatherCatV1.21B27,2013-08-24 23:54:00,
2013-08-24 19:56:00,60.6,50.4,30.35,East,93,0.0,0.0,69,0.00,,,0.00,WeatherCatV1.21B27,2013-08-24 23:56:00,
2013-08-24 19:57:00,60.5,49.9,30.35,East,93,0.0,0.0,68,0.00,,,0.00,WeatherCatV1.21B27,2013-08-24 23:57:00,
2013-08-24 19:58:00,60.5,49.9,30.35,East,93,0.0,0.0,68,0.00,,,0.00,WeatherCatV1.21B27,2013-08-24 23:58:00,
2013-08-24 19:59:00,60.4,50.2,30.35,East,93,0.0,0.0,69,0.00,,,0.00,WeatherCatV1.21B27,2013-08-24 23:59:00,
2013-08-24 20:01:00,60.2,50.4,30.35,East,93,0.0,0.0,70,0.00,,,0.00,WeatherCatV1.21B27,2013-08-25 00:01:00,
2013-08-24 20:02:00,60.0,50.2,30.35,East,93,0.0,0.0,70,0.00,,,0.00,WeatherCatV1.21B27,2013-08-25 00:02:00,
2013-08-24 20:03:00,60.0,50.2,30.35,East,93,0.0,0.0,70,0.00,,,0.00,WeatherCatV1.21B27,2013-08-25 00:03:00,
2013-08-24 20:04:00,59.8,50.0,30.35,East,93,0.0,1.0,70,0.00,,,0.00,WeatherCatV1.21B27,2013-08-25 00:04:00,
2013-08-24 20:06:00,59.7,50.3,30.35,East,93,0.0,0.0,71,0.00,,,0.00,WeatherCatV1.21B27,2013-08-25 00:06:00,
2013-08-24 20:07:00,59.6,50.6,30.35,East,93,0.0,0.0,72,0.00,,,0.00,WeatherCatV1.21B27,2013-08-25 00:07:00,
2013-08-24 20:08:00,59.6,50.6,30.35,East,93,0.0,0.0,72,0.00,,,0.00,WeatherCatV1.21B27,2013-08-25 00:08:00,
2013-08-24 20:09:00,59.6,50.9,30.35,East,93,0.0,0.0,73,0.00,,,0.00,WeatherCatV1.21B27,2013-08-25 00:09:00,
2013-08-24 20:11:00,59.5,51.2,30.35,East,93,0.0,0.0,74,0.00,,,0.00,WeatherCatV1.21B27,2013-08-25 00:11:00,
2013-08-24 20:12:00,59.5,51.6,30.35,East,93,0.0,0.0,75,0.00,,,0.00,WeatherCatV1.21B27,2013-08-25 00:12:00,
2013-08-24 20:13:00,59.5,51.6,30.35,East,93,0.0,0.0,75,0.00,,,0.00,WeatherCatV1.21B27,2013-08-25 00:13:00,
2013-08-24 20:14:00,59.4,51.5,30.35,East,93,0.0,0.0,75,0.00,,,0.00,WeatherCatV1.21B27,2013-08-25 00:14:00,
2013-08-24 20:16:00,59.3,51.7,30.35,East,93,0.0,1.0,76,0.00,,,0.00,WeatherCatV1.21B27,2013-08-25 00:16:00,
2013-08-24 20:18:00,59.2,51.6,30.35,East,93,0.0,1.0,76,0.00,,,0.00,WeatherCatV1.21B27,2013-08-25 00:18:00,
2013-08-24 20:19:00,59.1,51.9,30.35,East,93,0.0,0.0,77,0.00,,,0.00,WeatherCatV1.21B27,2013-08-25 00:19:00,
2013-08-24 20:20:00,59.0,51.8,30.35,East,93,0.0,0.0,77,0.00,,,0.00,WeatherCatV1.21B27,2013-08-25 00:20:00,
2013-08-24 20:21:00,58.9,52.0,30.35,East,93,0.0,1.0,78,0.00,,,0.00,WeatherCatV1.21B27,2013-08-25 00:21:00,
2013-08-24 20:23:00,58.7,52.2,30.35,East,93,1.0,1.0,79,0.00,,,0.00,WeatherCatV1.21B27,2013-08-25 00:23:00,
2013-08-24 20:24:00,58.6,52.5,30.35,East,93,0.0,1.0,80,0.00,,,0.00,WeatherCatV1.21B27,2013-08-25 00:24:00,
2013-08-24 20:25:00,58.5,52.3,30.35,East,93,0.0,1.0,80,0.00,,,0.00,WeatherCatV1.21B27,2013-08-25 00:25:00,
2013-08-24 20:26:00,58.4,52.2,30.35,East,93,0.0,0.0,80,0.00,,,0.00,WeatherCatV1.21B27,2013-08-25 00:26:00,
2013-08-24 20:28:00,58.3,52.2,30.35,East,93,0.0,0.0,80,0.00,,,0.00,WeatherCatV1.21B27,2013-08-25 00:28:00,
2013-08-24 20:29:00,58.2,52.1,30.35,East,93,0.0,0.0,80,0.00,,,0.00,WeatherCatV1.21B27,2013-08-25 00:29:00,
2013-08-24 20:30:00,58.1,52.3,30.36,East,93,0.0,0.0,81,0.00,,,0.00,WeatherCatV1.21B27,2013-08-25 00:30:00,
2013-08-24 20:31:00,58.1,52.3,30.36,East,93,0.0,1.0,81,0.00,,,0.00,WeatherCatV1.21B27,2013-08-25 00:31:00,
2013-08-24 20:33:00,58.0,52.2,30.36,East,93,0.0,1.0,81,0.00,,,0.00,WeatherCatV1.21B27,2013-08-25 00:33:00,
2013-08-24 20:34:00,57.9,52.1,30.36,East,93,0.0,0.0,81,0.00,,,0.00,WeatherCatV1.21B27,2013-08-25 00:34:00,
2013-08-24 20:35:00,57.9,52.1,30.36,East,93,0.0,0.0,81,0.00,,,0.00,WeatherCatV1.21B27,2013-08-25 00:35:00,
2013-08-24 20:36:00,57.8,52.0,30.36,East,93,0.0,0.0,81,0.00,,,0.00,WeatherCatV1.21B27,2013-08-25 00:36:00,
2013-08-24 20:38:00,57.7,52.2,30.36,East,93,0.0,0.0,82,0.00,,,0.00,WeatherCatV1.21B27,2013-08-25 00:38:00,
2013-08-24 20:40:00,57.5,52.0,30.36,East,93,0.0,0.0,82,0.00,,,0.00,WeatherCatV1.21B27,2013-08-25 00:40:00,
2013-08-24 20:41:00,57.4,52.0,30.36,East,93,0.0,0.0,82,0.00,,,0.00,WeatherCatV1.21B27,2013-08-25 00:41:00,
2013-08-24 20:42:00,57.4,52.0,30.36,East,93,0.0,0.0,82,0.00,,,0.00,WeatherCatV1.21B27,2013-08-25 00:42:00,
2013-08-24 20:43:00,57.3,51.8,30.36,East,93,0.0,0.0,82,0.00,,,0.00,WeatherCatV1.21B27,2013-08-25 00:43:00,
2013-08-24 20:45:00,57.3,51.8,30.36,East,93,0.0,0.0,82,0.00,,,0.00,WeatherCatV1.21B27,2013-08-25 00:45:00,
2013-08-24 20:46:00,57.2,52.1,30.36,East,93,0.0,0.0,83,0.00,,,0.00,WeatherCatV1.21B27,2013-08-25 00:46:00,
2013-08-24 20:47:00,57.2,52.1,30.36,East,93,0.0,0.0,83,0.00,,,0.00,WeatherCatV1.21B27,2013-08-25 00:47:00,
2013-08-24 20:48:00,57.2,52.1,30.36,East,93,0.0,0.0,83,0.00,,,0.00,WeatherCatV1.21B27,2013-08-25 00:48:00,
2013-08-24 20:50:00,57.2,52.1,30.36,East,93,0.0,1.0,83,0.00,,,0.00,WeatherCatV1.21B27,2013-08-25 00:50:00,
2013-08-24 20:51:00,57.1,52.0,30.36,East,93,0.0,0.0,83,0.00,,,0.00,WeatherCatV1.21B27,2013-08-25 00:51:00,
2013-08-24 20:52:00,57.1,52.0,30.36,East,93,0.0,0.0,83,0.00,,,0.00,WeatherCatV1.21B27,2013-08-25 00:52:00,
2013-08-24 20:53:00,57.1,52.0,30.36,East,93,0.0,0.0,83,0.00,,,0.00,WeatherCatV1.21B27,2013-08-25 00:53:00,
2013-08-24 20:55:00,57.0,51.9,30.37,East,93,0.0,0.0,83,0.00,,,0.00,WeatherCatV1.21B27,2013-08-25 00:55:00,
2013-08-24 20:56:00,56.9,51.8,30.37,East,93,0.0,0.0,83,0.00,,,0.00,WeatherCatV1.21B27,2013-08-25 00:56:00,
2013-08-24 20:57:00,56.9,52.1,30.37,East,93,0.0,0.0,84,0.00,,,0.00,WeatherCatV1.21B27,2013-08-25 00:57:00,
2013-08-24 20:59:00,56.9,51.8,30.37,East,93,0.0,0.0,83,0.00,,,0.00,WeatherCatV1.21B27,2013-08-25 00:59:00,
2013-08-24 21:00:00,56.8,52.0,30.37,East,93,0.0,0.0,84,0.00,,,0.00,WeatherCatV1.21B27,2013-08-25 01:00:00,
2013-08-24 21:01:00,56.8,52.0,30.37,East,93,0.0,0.0,84,0.00,,,0.00,WeatherCatV1.21B27,2013-08-25 01:01:00,
2013-08-24 21:02:00,56.8,51.7,30.37,East,93,0.0,0.0,83,0.00,,,0.00,WeatherCatV1.21B27,2013-08-25 01:02:00,
2013-08-24 21:04:00,56.8,51.7,30.37,East,93,0.0,0.0,83,0.00,,,0.00,WeatherCatV1.21B27,2013-08-25 01:04:00,
2013-08-24 21:05:00,56.8,52.0,30.37,East,93,0.0,0.0,84,0.00,,,0.00,WeatherCatV1.21B27,2013-08-25 01:05:00,
2013-08-24 21:06:00,56.7,51.9,30.37,East,93,0.0,0.0,84,0.00,,,0.00,WeatherCatV1.21B27,2013-08-25 01:06:00,
2013-08-24 21:07:00,56.7,51.6,30.37,East,93,0.0,1.0,83,0.00,,,0.00,WeatherCatV1.21B27,2013-08-25 01:07:00,
2013-08-24 21:09:00,56.6,51.5,30.37,East,93,0.0,1.0,83,0.00,,,0.00,WeatherCatV1.21B27,2013-08-25 01:09:00,
2013-08-24 21:11:00,56.4,51.6,30.37,East,93,0.0,0.0,84,0.00,,,0.00,WeatherCatV1.21B27,2013-08-25 01:11:00,
2013-08-24 21:12:00,56.3,51.5,30.37,East,93,0.0,0.0,84,0.00,,,0.00,WeatherCatV1.21B27,2013-08-25 01:12:00,
2013-08-24 21:14:00,56.2,51.8,30.37,East,93,0.0,0.0,85,0.00,,,0.00,WeatherCatV1.21B27,2013-08-25 01:14:00,
2013-08-24 21:16:00,56.0,51.5,30.37,East,93,0.0,1.0,85,0.00,,,0.00,WeatherCatV1.21B27,2013-08-25 01:16:00,
2013-08-24 21:17:00,55.9,51.8,30.37,East,93,0.0,1.0,86,0.00,,,0.00,WeatherCatV1.21B27,2013-08-25 01:17:00,
2013-08-24 21:19:00,55.8,51.7,30.37,East,93,0.0,0.0,86,0.00,,,0.00,WeatherCatV1.21B27,2013-08-25 01:19:00,
2013-08-24 21:21:00,55.6,51.5,30.37,East,93,0.0,0.0,86,0.00,,,0.00,WeatherCatV1.21B27,2013-08-25 01:21:00,
2013-08-24 21:22:00,55.5,51.4,30.37,East,93,0.0,0.0,86,0.00,,,0.00,WeatherCatV1.21B27,2013-08-25 01:22:00,
2013-08-24 21:23:00,55.5,51.7,30.37,East,93,0.0,1.0,87,0.00,,,0.00,WeatherCatV1.21B27,2013-08-25 01:23:00,
2013-08-24 21:24:00,55.4,51.6,30.37,East,93,0.0,1.0,87,0.00,,,0.00,WeatherCatV1.21B27,2013-08-25 01:24:00,
2013-08-24 21:26:00,55.4,51.9,30.37,East,93,0.0,0.0,88,0.00,,,0.00,WeatherCatV1.21B27,2013-08-25 01:26:00,
2013-08-24 21:27:00,55.3,51.8,30.37,East,93,0.0,0.0,88,0.00,,,0.00,WeatherCatV1.21B27,2013-08-25 01:27:00,
2013-08-24 21:28:00,55.3,51.8,30.37,East,93,0.0,0.0,88,0.00,,,0.00,WeatherCatV1.21B27,2013-08-25 01:28:00,
2013-08-24 21:29:00,55.3,51.8,30.37,East,93,0.0,0.0,88,0.00,,,0.00,WeatherCatV1.21B27,2013-08-25 01:29:00,
2013-08-24 21:32:00,55.3,52.1,30.37,East,93,0.0,0.0,89,0.00,,,0.00,WeatherCatV1.21B27,2013-08-25 01:32:00,
2013-08-24 21:33:00,55.3,52.1,30.37,East,93,0.0,0.0,89,0.00,,,0.00,WeatherCatV1.21B27,2013-08-25 01:33:00,
2013-08-24 21:34:00,55.2,52.0,30.37,East,93,0.0,0.0,89,0.00,,,0.00,WeatherCatV1.21B27,2013-08-25 01:34:00,
2013-08-24 21:37:00,55.1,51.9,30.37,East,93,0.0,0.0,89,0.00,,,0.00,WeatherCatV1.21B27,2013-08-25 01:37:00,
2013-08-24 21:38:00,55.1,51.9,30.37,East,93,0.0,0.0,89,0.00,,,0.00,WeatherCatV1.21B27,2013-08-25 01:38:00,
2013-08-24 21:39:00,55.1,51.6,30.37,East,93,0.0,0.0,88,0.00,,,0.00,WeatherCatV1.21B27,2013-08-25 01:39:00,
2013-08-24 21:42:00,54.9,51.4,30.37,East,93,0.0,1.0,88,0.00,,,0.00,WeatherCatV1.21B27,2013-08-25 01:42:00,
2013-08-24 21:43:00,54.9,51.4,30.37,East,93,0.0,0.0,88,0.00,,,0.00,WeatherCatV1.21B27,2013-08-25 01:43:00,
2013-08-24 21:45:00,54.8,51.6,30.37,East,93,0.0,0.0,89,0.00,,,0.00,WeatherCatV1.21B27,2013-08-25 01:45:00,
2013-08-24 21:47:00,54.6,51.4,30.37,East,93,0.0,0.0,89,0.00,,,0.00,WeatherCatV1.21B27,2013-08-25 01:47:00,
2013-08-24 21:48:00,54.6,51.4,30.37,East,93,0.0,0.0,89,0.00,,,0.00,WeatherCatV1.21B27,2013-08-25 01:48:00,
2013-08-24 21:49:00,54.6,51.4,30.37,East,93,0.0,1.0,89,0.00,,,0.00,WeatherCatV1.21B27,2013-08-25 01:49:00,
2013-08-24 21:50:00,54.5,51.3,30.37,East,93,0.0,1.0,89,0.00,,,0.00,WeatherCatV1.21B27,2013-08-25 01:50:00,
2013-08-24 21:52:00,54.4,51.2,30.38,East,93,0.0,1.0,89,0.00,,,0.00,WeatherCatV1.21B27,2013-08-25 01:52:00,
2013-08-24 21:53:00,54.4,51.2,30.38,East,93,0.0,1.0,89,0.00,,,0.00,WeatherCatV1.21B27,2013-08-25 01:53:00,
2013-08-24 21:54:00,54.4,51.5,30.37,East,93,0.0,1.0,90,0.00,,,0.00,WeatherCatV1.21B27,2013-08-25 01:54:00,
2013-08-24 21:55:00,54.3,51.1,30.37,East,93,0.0,0.0,89,0.00,,,0.00,WeatherCatV1.21B27,2013-08-25 01:55:00,
2013-08-24 21:58:00,54.2,51.3,30.37,East,93,0.0,0.0,90,0.00,,,0.00,WeatherCatV1.21B27,2013-08-25 01:58:00,
2013-08-24 21:59:00,54.1,51.2,30.37,East,93,0.0,0.0,90,0.00,,,0.00,WeatherCatV1.21B27,2013-08-25 01:59:00,
2013-08-24 22:00:00,54.1,51.2,30.37,East,93,0.0,0.0,90,0.00,,,0.00,WeatherCatV1.21B27,2013-08-25 02:00:00,
2013-08-24 22:03:00,54.0,51.1,30.37,East,93,0.0,1.0,90,0.00,,,0.00,WeatherCatV1.21B27,2013-08-25 02:03:00,
2013-08-24 22:04:00,54.0,51.1,30.37,East,93,0.0,0.0,90,0.00,,,0.00,WeatherCatV1.21B27,2013-08-25 02:04:00,
2013-08-24 22:06:00,54.0,51.1,30.37,East,93,0.0,0.0,90,0.00,,,0.00,WeatherCatV1.21B27,2013-08-25 02:06:00,
2013-08-24 22:08:00,54.0,51.1,30.37,East,93,0.0,1.0,90,0.00,,,0.00,WeatherCatV1.21B27,2013-08-25 02:08:00,
2013-08-24 22:09:00,54.0,51.1,30.37,East,93,0.0,1.0,90,0.00,,,0.00,WeatherCatV1.21B27,2013-08-25 02:09:00,
2013-08-24 22:11:00,53.9,51.0,30.37,East,93,0.0,0.0,90,0.00,,,0.00,WeatherCatV1.21B27,2013-08-25 02:11:00,
2013-08-24 22:13:00,53.8,50.9,30.37,East,93,1.0,1.0,90,0.00,,,0.00,WeatherCatV1.21B27,2013-08-25 02:13:00,
2013-08-24 22:14:00,53.7,50.8,30.37,East,93,0.0,1.0,90,0.00,,,0.00,WeatherCatV1.21B27,2013-08-25 02:14:00,
2013-08-24 22:16:00,53.7,50.8,30.37,East,93,0.0,0.0,90,0.00,,,0.00,WeatherCatV1.21B27,2013-08-25 02:16:00,
2013-08-24 22:18:00,53.6,50.7,30.37,East,93,0.0,1.0,90,0.00,,,0.00,WeatherCatV1.21B27,2013-08-25 02:18:00,
2013-08-24 22:19:00,53.5,50.6,30.37,East,93,0.0,0.0,90,0.00,,,0.00,WeatherCatV1.21B27,2013-08-25 02:19:00,
2013-08-24 22:20:00,53.5,50.6,30.37,East,93,0.0,0.0,90,0.00,,,0.00,WeatherCatV1.21B27,2013-08-25 02:20:00,
2013-08-24 22:21:00,53.5,50.6,30.37,East,93,0.0,0.0,90,0.00,,,0.00,WeatherCatV1.21B27,2013-08-25 02:21:00,
2013-08-24 22:23:00,53.4,50.8,30.37,East,93,0.0,0.0,91,0.00,,,0.00,WeatherCatV1.21B27,2013-08-25 02:23:00,
2013-08-24 22:24:00,53.4,50.8,30.37,East,93,0.0,0.0,91,0.00,,,0.00,WeatherCatV1.21B27,2013-08-25 02:24:00,
2013-08-24 22:25:00,53.3,50.7,30.37,East,93,0.0,0.0,91,0.00,,,0.00,WeatherCatV1.21B27,2013-08-25 02:25:00,
2013-08-24 22:26:00,53.3,50.7,30.37,East,93,0.0,0.0,91,0.00,,,0.00,WeatherCatV1.21B27,2013-08-25 02:26:00,
2013-08-24 22:29:00,53.2,50.6,30.37,East,93,0.0,0.0,91,0.00,,,0.00,WeatherCatV1.21B27,2013-08-25 02:29:00,
2013-08-24 22:30:00,53.2,50.6,30.37,East,93,0.0,0.0,91,0.00,,,0.00,WeatherCatV1.21B27,2013-08-25 02:30:00,
2013-08-24 22:31:00,53.1,50.5,30.37,East,93,0.0,0.0,91,0.00,,,0.00,WeatherCatV1.21B27,2013-08-25 02:31:00,
2013-08-24 22:34:00,53.1,50.5,30.37,East,93,0.0,0.0,91,0.00,,,0.00,WeatherCatV1.21B27,2013-08-25 02:34:00,
2013-08-24 22:35:00,53.0,50.4,30.37,East,93,0.0,0.0,91,0.00,,,0.00,WeatherCatV1.21B27,2013-08-25 02:35:00,
2013-08-24 22:36:00,53.0,50.4,30.37,East,93,0.0,0.0,91,0.00,,,0.00,WeatherCatV1.21B27,2013-08-25 02:36:00,
2013-08-24 22:39:00,53.0,50.4,30.37,East,93,0.0,0.0,91,0.00,,,0.00,WeatherCatV1.21B27,2013-08-25 02:39:00,
2013-08-24 22:40:00,53.0,50.4,30.37,East,93,0.0,1.0,91,0.00,,,0.00,WeatherCatV1.21B27,2013-08-25 02:40:00,
2013-08-24 22:41:00,52.9,50.3,30.37,East,93,0.0,1.0,91,0.00,,,0.00,WeatherCatV1.21B27,2013-08-25 02:41:00,
2013-08-24 22:42:00,52.9,50.3,30.37,East,93,0.0,0.0,91,0.00,,,0.00,WeatherCatV1.21B27,2013-08-25 02:42:00,
2013-08-24 22:44:00,52.8,50.2,30.37,East,93,0.0,1.0,91,0.00,,,0.00,WeatherCatV1.21B27,2013-08-25 02:44:00,
2013-08-24 22:45:00,52.8,50.2,30.37,East,93,0.0,0.0,91,0.00,,,0.00,WeatherCatV1.21B27,2013-08-25 02:45:00,
2013-08-24 22:46:00,52.7,50.2,30.37,East,93,0.0,0.0,91,0.00,,,0.00,WeatherCatV1.21B27,2013-08-25 02:46:00,
2013-08-24 22:47:00,52.7,50.2,30.37,East,93,0.0,0.0,91,0.00,,,0.00,WeatherCatV1.21B27,2013-08-25 02:47:00,
2013-08-24 22:49:00,52.6,50.0,30.37,East,93,0.0,0.0,91,0.00,,,0.00,WeatherCatV1.21B27,2013-08-25 02:49:00,
2013-08-24 22:50:00,52.6,50.0,30.37,East,93,0.0,0.0,91,0.00,,,0.00,WeatherCatV1.21B27,2013-08-25 02:50:00,
2013-08-24 22:51:00,52.5,50.0,30.37,East,93,0.0,0.0,91,0.00,,,0.00,WeatherCatV1.21B27,2013-08-25 02:51:00,
2013-08-24 22:52:00,52.4,49.8,30.37,East,93,0.0,0.0,91,0.00,,,0.00,WeatherCatV1.21B27,2013-08-25 02:52:00,
2013-08-24 22:54:00,52.4,50.1,30.37,East,93,0.0,0.0,92,0.00,,,0.00,WeatherCatV1.21B27,2013-08-25 02:54:00,
2013-08-24 22:55:00,52.4,50.1,30.37,East,93,0.0,0.0,92,0.00,,,0.00,WeatherCatV1.21B27,2013-08-25 02:55:00,
2013-08-24 22:56:00,52.4,50.1,30.37,East,93,0.0,1.0,92,0.00,,,0.00,WeatherCatV1.21B27,2013-08-25 02:56:00,
2013-08-24 22:57:00,52.4,50.1,30.37,East,93,0.0,0.0,92,0.00,,,0.00,WeatherCatV1.21B27,2013-08-25 02:57:00,
2013-08-24 23:00:00,52.4,50.4,30.37,East,93,0.0,0.0,93,0.00,,,0.00,WeatherCatV1.21B27,2013-08-25 03:00:00,
2013-08-24 23:01:00,52.4,50.4,30.37,East,93,0.0,0.0,93,0.00,,,0.00,WeatherCatV1.21B27,2013-08-25 03:01:00,
2013-08-24 23:02:00,52.4,50.4,30.37,East,93,0.0,0.0,93,0.00,,,0.00,WeatherCatV1.21B27,2013-08-25 03:02:00,
2013-08-24 23:05:00,52.4,50.1,30.37,East,93,0.0,1.0,92,0.00,,,0.00,WeatherCatV1.21B27,2013-08-25 03:05:00,
2013-08-24 23:06:00,52.4,50.1,30.37,East,93,0.0,1.0,92,0.00,,,0.00,WeatherCatV1.21B27,2013-08-25 03:06:00,
2013-08-24 23:07:00,52.4,50.1,30.37,East,93,0.0,0.0,92,0.00,,,0.00,WeatherCatV1.21B27,2013-08-25 03:07:00,
2013-08-24 23:10:00,52.3,50.0,30.37,East,93,0.0,0.0,92,0.00,,,0.00,WeatherCatV1.21B27,2013-08-25 03:10:00,
2013-08-24 23:11:00,52.3,50.0,30.37,East,93,0.0,0.0,92,0.00,,,0.00,WeatherCatV1.21B27,2013-08-25 03:11:00,
2013-08-24 23:12:00,52.3,50.0,30.37,East,93,0.0,0.0,92,0.00,,,0.00,WeatherCatV1.21B27,2013-08-25 03:12:00,
2013-08-24 23:15:00,52.2,50.0,30.37,East,93,0.0,0.0,92,0.00,,,0.00,WeatherCatV1.21B27,2013-08-25 03:15:00,
2013-08-24 23:16:00,52.2,50.0,30.37,East,93,0.0,1.0,92,0.00,,,0.00,WeatherCatV1.21B27,2013-08-25 03:16:00,
2013-08-24 23:18:00,52.1,49.8,30.37,East,93,0.0,0.0,92,0.00,,,0.00,WeatherCatV1.21B27,2013-08-25 03:18:00,
2013-08-24 23:20:00,52.0,49.8,30.37,East,93,0.0,0.0,92,0.00,,,0.00,WeatherCatV1.21B27,2013-08-25 03:20:00,
2013-08-24 23:21:00,52.0,49.8,30.37,East,93,0.0,0.0,92,0.00,,,0.00,WeatherCatV1.21B27,2013-08-25 03:21:00,
2013-08-24 23:23:00,52.0,50.0,30.37,East,93,0.0,0.0,93,0.00,,,0.00,WeatherCatV1.21B27,2013-08-25 03:23:00,
2013-08-24 23:25:00,51.9,49.9,30.37,East,93,0.0,1.0,93,0.00,,,0.00,WeatherCatV1.21B27,2013-08-25 03:25:00,
2013-08-24 23:26:00,51.9,49.9,30.38,East,93,0.0,1.0,93,0.00,,,0.00,WeatherCatV1.21B27,2013-08-25 03:26:00,
2013-08-24 23:28:00,51.9,49.9,30.37,East,93,0.0,0.0,93,0.00,,,0.00,WeatherCatV1.21B27,2013-08-25 03:28:00,
2013-08-24 23:31:00,51.9,49.9,30.38,East,93,0.0,0.0,93,0.00,,,0.00,WeatherCatV1.21B27,2013-08-25 03:31:00,
2013-08-24 23:32:00,51.8,49.8,30.38,East,93,0.0,0.0,93,0.00,,,0.00,WeatherCatV1.21B27,2013-08-25 03:32:00,
2013-08-24 23:33:00,51.8,49.8,30.38,East,93,0.0,0.0,93,0.00,,,0.00,WeatherCatV1.21B27,2013-08-25 03:33:00,
2013-08-24 23:36:00,51.8,49.8,30.38,East,93,0.0,0.0,93,0.00,,,0.00,WeatherCatV1.21B27,2013-08-25 03:36:00,
2013-08-24 23:38:00,51.7,49.7,30.38,East,93,0.0,0.0,93,0.00,,,0.00,WeatherCatV1.21B27,2013-08-25 03:38:00,
2013-08-24 23:41:00,51.7,49.7,30.38,East,93,0.0,0.0,93,0.00,,,0.00,WeatherCatV1.21B27,2013-08-25 03:41:00,
2013-08-24 23:43:00,51.7,49.7,30.38,East,93,0.0,0.0,93,0.00,,,0.00,WeatherCatV1.21B27,2013-08-25 03:43:00,
2013-08-24 23:44:00,51.7,49.7,30.38,East,93,0.0,0.0,93,0.00,,,0.00,WeatherCatV1.21B27,2013-08-25 03:44:00,
2013-08-24 23:46:00,51.6,49.6,30.38,East,93,0.0,0.0,93,0.00,,,0.00,WeatherCatV1.21B27,2013-08-25 03:46:00,
2013-08-24 23:47:00,51.6,49.6,30.38,East,93,0.0,0.0,93,0.00,,,0.00,WeatherCatV1.21B27,2013-08-25 03:47:00,
2013-08-24 23:48:00,51.6,49.6,30.38,East,93,0.0,0.0,93,0.00,,,0.00,WeatherCatV1.21B27,2013-08-25 03:48:00,
2013-08-24 23:49:00,51.6,49.6,30.38,East,93,0.0,0.0,93,0.00,,,0.00,WeatherCatV1.21B27,2013-08-25 03:49:00,
2013-08-24 23:51:00,51.5,49.5,30.38,East,93,0.0,0.0,93,0.00,,,0.00,WeatherCatV1.21B27,2013-08-25 03:51:00,
2013-08-24 23:52:00,51.5,49.5,30.38,East,93,0.0,0.0,93,0.00,,,0.00,WeatherCatV1.21B27,2013-08-25 03:52:00,
2013-08-24 23:53:00,51.5,49.5,30.38,East,93,0.0,0.0,93,0.00,,,0.00,WeatherCatV1.21B27,2013-08-25 03:53:00,
2013-08-24 23:55:00,51.5,49.5,30.38,East,93,0.0,0.0,93,0.00,,,0.00,WeatherCatV1.21B27,2013-08-25 03:55:00,
2013-08-24 23:56:00,51.4,49.4,30.38,East,93,0.0,1.0,93,0.00,,,0.00,WeatherCatV1.21B27,2013-08-25 03:56:00,
2013-08-24 23:57:00,51.4,49.4,30.38,East,93,0.0,1.0,93,0.00,,,0.00,WeatherCatV1.21B27,2013-08-25 03:57:00,
2013-08-24 23:58:00,51.4,49.4,30.38,East,93,0.0,0.0,93,0.00,,,0.00,WeatherCatV1.21B27,2013-08-25 03:58:00,